PORTS® Data Listing: 8452660 Newport, RI

CO-OPS RAW PORTS DATA

************************      PRELIMINARY DATA      ************************** 

     THIS RAW DATA HAS NOT BEEN SUBJECT TO THE NATIONAL OCEAN SERVICE'S        
     QUALITY CONTROL OR QUALITY ASSURANCE PROCEDURES AND DOES NOT MEET         
     THE CRITERIA AND STANDARDS OF OFFICIAL NATIONAL OCEAN SERVICE             
     DATA.  IT IS RELEASED FOR LIMITED PUBLIC USE AS PRELIMINARY DATA TO       
     BE USED ONLY WITH APPROPRIATE CAUTION.                                    

************************      PRELIMINARY DATA      ************************** 


       CD   -   Calendar date
       T    -   Time
       TZ   -   Timezone
       PW   -   Predicted water level (feet above MLLW)
       OW   -   Observed water level (feet above MLLW)
       WS   -   Wind speed (knots)
       WD   -   Wind direction (degrees true)
       WG   -   Wind gust (knots)
       AT   -   Air temperature (degrees farenheit)
       WT   -   Water temperature (degrees farenheit)
       AP   -   Air pressure (millibars)
       SA   -   Salinty (PSU - Practical Salinity Units)
       SG   -   Specific gravity
       RH   -   Relative humidity
       AG   -   Air gap (feet)
       VI   -   Visibility (nautical miles)

       ** NOTE **
       A variable that has its data fields filled with "9"s, indicates that
       data was not collected for that sample period.
       **********


STATION NAME: Newport (8452660)
****************************************************************************************************
    CD       T    TZ    PW     OW    WS   WD   WG    AT    WT    AP    SA    SG     RH    AG   VI
****************************************************************************************************
2019/10/18 08:36 EDT    2.47   2.72   14  271   18  51.4  54.5 1005.3 32.4  1.025 -99.9 -99.99 -9.99
2019/10/18 08:42 EDT    2.53   2.84   14  275   16  51.6  54.7 1005.3 32.3  1.025 -99.9 -99.99 -9.99
2019/10/18 08:48 EDT    2.60   2.90   13  283   17  51.8  54.5 1005.5 32.4  1.025 -99.9 -99.99 -9.99
2019/10/18 08:54 EDT    2.67   2.96   14  282   19  52.0  54.7 1005.4 32.4  1.025 -99.9 -99.99 -9.99
2019/10/18 09:00 EDT    2.74   3.11   14  277   18  52.0  54.7 1005.5 32.4  1.025 -99.9 -99.99 -9.99
2019/10/18 09:06 EDT    2.81   3.11   14  284   18  52.2  54.7 1005.6 32.4  1.025 -99.9 -99.99 -9.99
2019/10/18 09:12 EDT    2.87   3.21   16  278   18  52.5  54.7 1005.7 32.5  1.025 -99.9 -99.99 -9.99
2019/10/18 09:18 EDT    2.94   3.27   14  286   21  52.7  54.7 1005.8 32.4  1.025 -99.9 -99.99 -9.99
2019/10/18 09:24 EDT    3.00   3.28   12  287   16  52.7  54.7 1005.9 32.4  1.025 -99.9 -99.99 -9.99
2019/10/18 09:30 EDT    3.06   3.41   15  273   17  52.7  54.7 1005.8 32.4  1.025 -99.9 -99.99 -9.99
2019/10/18 09:36 EDT    3.13   3.47   15  289   20  52.9  54.7 1006.0 32.4  1.025 -99.9 -99.99 -9.99
2019/10/18 09:42 EDT    3.19   3.54   11  293   17  53.4  54.7 1006.1 32.5  1.025 -99.9 -99.99 -9.99
2019/10/18 09:48 EDT    3.24   3.67   13  306   17  53.8  54.7 1006.1 32.5  1.025 -99.9 -99.99 -9.99
2019/10/18 09:54 EDT    3.30   3.66   13  312   21  53.4  54.9 1006.2 32.4  1.025 -99.9 -99.99 -9.99
2019/10/18 10:00 EDT    3.35   3.73   12  305   17  53.2  54.9 1006.3 32.6  1.026 -99.9 -99.99 -9.99
2019/10/18 10:06 EDT    3.40   3.77   14  307   18  53.1  54.9 1006.3 32.7  1.026 -99.9 -99.99 -9.99
2019/10/18 10:12 EDT    3.45   3.75   12  303   19  53.2  54.7 1006.4 32.7  1.026 -99.9 -99.99 -9.99
2019/10/18 10:18 EDT    3.49   3.85   12  316   17  53.1  54.7 1006.5 32.7  1.026 -99.9 -99.99 -9.99
2019/10/18 10:24 EDT    3.53   3.88   10  315   15  53.4  54.7 1006.5 32.7  1.026 -99.9 -99.99 -9.99
2019/10/18 10:30 EDT    3.57   3.94   10  302   19  53.4  54.9 1006.5 32.6  1.026 -99.9 -99.99 -9.99
2019/10/18 10:36 EDT    3.60   4.02   10  312   16  54.0  54.7 1006.7 32.7  1.026 -99.9 -99.99 -9.99
2019/10/18 10:42 EDT    3.63   4.02   11  309   16  53.8  54.7 1006.7 32.7  1.026 -99.9 -99.99 -9.99
2019/10/18 10:48 EDT    3.65   4.07   15  318   19  53.6  54.7 1006.7 32.7  1.026 -99.9 -99.99 -9.99
2019/10/18 10:54 EDT    3.67   4.09   12  309   19  53.4  54.7 1006.7 32.7  1.026 -99.9 -99.99 -9.99
2019/10/18 11:00 EDT    3.69   4.03   13  309   16  54.0  54.7 1006.8 32.7  1.026 -99.9 -99.99 -9.99
2019/10/18 11:06 EDT    3.70   4.08   13  312   19  54.0  54.9 1006.8 32.6  1.026 -99.9 -99.99 -9.99
2019/10/18 11:12 EDT    3.70   4.09   12  305   17  54.0  53.8 1006.9 32.1  1.025 -99.9 -99.99 -9.99
2019/10/18 11:18 EDT    3.70   4.11   13  310   17  54.0  54.3 1006.9 32.5  1.025 -99.9 -99.99 -9.99
2019/10/18 11:24 EDT    3.70   4.14   11  306   19  54.0  54.5 1006.9 32.6  1.026 -99.9 -99.99 -9.99
2019/10/18 11:30 EDT    3.69   4.12   13  310   17  54.1  54.7 1006.9 32.6  1.026 -99.9 -99.99 -9.99
2019/10/18 11:36 EDT    3.67   4.13   12  313   17  54.3  54.7 1007.0 32.7  1.026 -99.9 -99.99 -9.99
2019/10/18 11:42 EDT    3.65   4.08   11  307   18  54.1  54.7 1006.9 32.7  1.026 -99.9 -99.99 -9.99
2019/10/18 11:48 EDT    3.62   4.07   10  329   16  54.5  54.7 1007.0 32.6  1.026 -99.9 -99.99 -9.99
2019/10/18 11:54 EDT    3.59   4.09   10  316   15  54.7  54.7 1007.0 32.5  1.025 -99.9 -99.99 -9.99
2019/10/18 12:00 EDT    3.56   4.00   12  311   14  54.5  54.7 1007.0 32.5  1.025 -99.9 -99.99 -9.99
2019/10/18 12:06 EDT    3.52   3.98   10  318   17  55.2  54.1 1007.0 32.1  1.025 -99.9 -99.99 -9.99
2019/10/18 12:12 EDT    3.47   3.96   12  314   17  54.9  54.0 1007.1 32.1  1.025 -99.9 -99.99 -9.99
2019/10/18 12:18 EDT    3.42   3.90   12  309   16  54.9  54.0 1007.0 32.0  1.025 -99.9 -99.99 -9.99
2019/10/18 12:24 EDT    3.37   3.83   13  309   16  55.4  54.0 1006.9 32.1  1.025 -99.9 -99.99 -9.99
2019/10/18 12:30 EDT    3.31   3.78    9  321   16  55.8  54.1 1006.9 32.0  1.025 -99.9 -99.99 -9.99
2019/10/18 12:36 EDT    3.25   3.69   10  318   14  55.8  54.0 1006.8 32.1  1.025 -99.9 -99.99 -9.99
2019/10/18 12:42 EDT    3.18   3.62   11  310   17  55.6  54.0 1006.7 32.1  1.025 -99.9 -99.99 -9.99
2019/10/18 12:48 EDT    3.11   3.60    9  301   14  55.9  53.8 1006.8 32.1  1.025 -99.9 -99.99 -9.99
2019/10/18 12:54 EDT    3.04   3.51   10  309   14  55.8  54.0 1006.8 32.1  1.025 -99.9 -99.99 -9.99
2019/10/18 13:00 EDT    2.96   3.47    9  309   13  56.1  54.0 1006.8 32.0  1.025 -99.9 -99.99 -9.99
2019/10/18 13:06 EDT    2.89   3.36   12  313   16  56.1  54.0 1006.8 32.1  1.025 -99.9 -99.99 -9.99
2019/10/18 13:12 EDT    2.81   3.25    9  317   16  56.5  54.0 1006.8 32.1  1.025 -99.9 -99.99 -9.99
2019/10/18 13:18 EDT    2.72   3.18    8  312   11  56.7  54.0 1006.7 32.3  1.025 -99.9 -99.99 -9.99
2019/10/18 13:24 EDT    2.64   3.08    7  341   12  56.7  54.0 1006.8 32.1  1.025 -99.9 -99.99 -9.99
2019/10/18 13:30 EDT    2.55   3.00    7  344   12  56.7  53.8 1006.8 32.2  1.025 -99.9 -99.99 -9.99
2019/10/18 13:36 EDT    2.46   2.91   10  337   12  57.0  54.0 1006.8 32.3  1.025 -99.9 -99.99 -9.99
2019/10/18 13:42 EDT    2.37   2.83    7  323   13  57.7  54.0 1006.8 32.2  1.025 -99.9 -99.99 -9.99
2019/10/18 13:48 EDT    2.28   2.72    9  327   17  57.4  54.0 1006.8 32.3  1.025 -99.9 -99.99 -9.99
2019/10/18 13:54 EDT    2.19   2.64    8  317   15  57.4  54.0 1006.8 32.2  1.025 -99.9 -99.99 -9.99
2019/10/18 14:00 EDT    2.10   2.54    9  320   13  57.4  53.8 1006.8 32.2  1.025 -99.9 -99.99 -9.99
2019/10/18 14:06 EDT    2.01   2.43    9  313   12  58.1  53.8 1007.0 32.2  1.025 -99.9 -99.99 -9.99
2019/10/18 14:12 EDT    1.92   2.31    9  308   14  57.9  53.8 1007.1 32.1  1.025 -99.9 -99.99 -9.99
2019/10/18 14:18 EDT    1.83   2.23   10  313   15  58.1  54.0 1007.1 32.1  1.025 -99.9 -99.99 -9.99
2019/10/18 14:24 EDT    1.74   2.14   12  344   14  58.1  54.0 1007.2 32.0  1.025 -99.9 -99.99 -9.99
2019/10/18 14:30 EDT    1.65   2.07    9  320   14  57.9  53.8 1007.1 32.0  1.025 -99.9 -99.99 -9.99
2019/10/18 14:36 EDT    1.56   1.99    9  314   12  58.3  54.0 1007.0 32.0  1.025 -99.9 -99.99 -9.99
2019/10/18 14:42 EDT    1.48   1.89    7  334   14  58.6  53.8 1007.0 32.1  1.025 -99.9 -99.99 -9.99
2019/10/18 14:48 EDT    1.39   1.82    7  325   12  58.8  54.0 1007.1 32.1  1.025 -99.9 -99.99 -9.99
2019/10/18 14:54 EDT    1.31   1.71    7  337   14  58.6  54.0 1007.2 32.2  1.025 -99.9 -99.99 -9.99
2019/10/18 15:00 EDT    1.23   1.65    8  321   12  58.6  54.0 1007.1 32.2  1.025 -99.9 -99.99 -9.99
2019/10/18 15:06 EDT    1.15   1.56    6  323   11  58.8  54.0 1007.2 32.3  1.025 -99.9 -99.99 -9.99
2019/10/18 15:12 EDT    1.08   1.45    6  353   13  59.2  54.3 1007.3 32.4  1.025 -99.9 -99.99 -9.99
2019/10/18 15:18 EDT    1.01   1.44    7  339   10  59.4  54.1 1007.4 32.1  1.025 -99.9 -99.99 -9.99
2019/10/18 15:24 EDT    0.94   1.32    7  322   10  59.5  54.3 1007.5 32.3  1.025 -99.9 -99.99 -9.99
2019/10/18 15:30 EDT    0.88   1.30    6  318   10  59.4  54.5 1007.6 32.6  1.026 -99.9 -99.99 -9.99
2019/10/18 15:36 EDT    0.82   1.23    8  321   11  59.5  54.5 1007.7 32.6  1.026 -99.9 -99.99 -9.99
2019/10/18 15:42 EDT    0.76   1.19    7  331   11  59.5  54.5 1007.8 32.4  1.025 -99.9 -99.99 -9.99
2019/10/18 15:48 EDT    0.71   1.17    9  311   14  59.5  54.5 1008.0 32.6  1.026 -99.9 -99.99 -9.99
2019/10/18 15:54 EDT    0.67   1.09    8  318   12  59.2  54.7 1008.0 32.7  1.026 -99.9 -99.99 -9.99
2019/10/18 16:00 EDT    0.62   1.09    9  333   14  59.4  54.7 1008.1 32.6  1.026 -99.9 -99.99 -9.99
2019/10/18 16:06 EDT    0.59   1.09    7  323   10  59.7  54.7 1008.1 32.8  1.026 -99.9 -99.99 -9.99
2019/10/18 16:12 EDT    0.55   1.10    8  314   12  59.5  55.0 1008.2 32.8  1.026 -99.9 -99.99 -9.99
2019/10/18 16:18 EDT    0.52   1.04    8  307   12  59.2  54.7 1008.2 32.5  1.025 -99.9 -99.99 -9.99
2019/10/18 16:24 EDT    0.50   1.05    6  341   11  59.2  54.7 1008.2 32.6  1.026 -99.9 -99.99 -9.99
2019/10/18 16:30 EDT    0.48   1.03    5  344    8  59.4  55.0 1008.2 32.7  1.026 -99.9 -99.99 -9.99
2019/10/18 16:36 EDT    0.46   1.00    6  322    7  59.9  55.0 1008.3 32.6  1.025 -99.9 -99.99 -9.99
2019/10/18 16:42 EDT    0.45   1.02    7  323   11  59.7  54.9 1008.4 32.7  1.026 -99.9 -99.99 -9.99
2019/10/18 16:48 EDT    0.44   1.00    7  320   13  59.2  55.2 1008.4 32.8  1.026 -99.9 -99.99 -9.99
2019/10/18 16:54 EDT    0.44   1.00   11  307   13  59.0  55.0 1008.5 32.9  1.026 -99.9 -99.99 -9.99
2019/10/18 17:00 EDT    0.44   1.04    9  312   14  59.0  55.2 1008.7 33.0  1.026 -99.9 -99.99 -9.99
2019/10/18 17:06 EDT    0.44   1.04   10  313   14  58.8  55.2 1008.8 33.0  1.026 -99.9 -99.99 -9.99
2019/10/18 17:12 EDT    0.45   1.08   10  320   15  58.8  55.2 1008.9 32.9  1.026 -99.9 -99.99 -9.99
2019/10/18 17:18 EDT    0.46   1.08   11  318   16  57.7  55.2 1009.0 32.9  1.026 -99.9 -99.99 -9.99
2019/10/18 17:24 EDT    0.48   1.07   13  317   19  57.4  55.2 1009.1 32.8  1.026 -99.9 -99.99 -9.99
2019/10/18 17:30 EDT    0.49   1.07   13  315   17  57.4  55.0 1009.1 32.7  1.026 -99.9 -99.99 -9.99
2019/10/18 17:36 EDT    0.51   1.08   10  317   16  57.2  55.0 1009.3 32.7  1.026 -99.9 -99.99 -9.99
2019/10/18 17:42 EDT    0.53   1.10   10  313   17  57.0  55.0 1009.3 32.7  1.026 -99.9 -99.99 -9.99
2019/10/18 17:48 EDT    0.55   1.12   11  311   13  56.8  55.0 1009.3 32.7  1.026 -99.9 -99.99 -9.99
2019/10/18 17:54 EDT    0.57   1.09   10  323   16  56.5  55.0 1009.4 32.8  1.026 -99.9 -99.99 -9.99
2019/10/18 18:00 EDT    0.60   1.11   10  321   15  56.3  55.2 1009.4 32.8  1.026 -99.9 -99.99 -9.99
2019/10/18 18:06 EDT    0.62   1.12   10  313   14  56.1  55.2 1009.5 32.7  1.026 -99.9 -99.99 -9.99
2019/10/18 18:12 EDT    0.65   1.13    9  311   13  55.9  55.2 1009.6 32.7  1.026 -99.9 -99.99 -9.99
2019/10/18 18:18 EDT    0.68   1.16   10  311   13  55.8  55.2 1009.8 32.7  1.026 -99.9 -99.99 -9.99
2019/10/18 18:24 EDT    0.70   1.15    9  312   12  55.4  55.2 1009.8 32.7  1.026 -99.9 -99.99 -9.99
2019/10/18 18:30 EDT    0.73   1.19    8  310   11  55.2  55.2 1009.9 32.9  1.026 -99.9 -99.99 -9.99
2019/10/18 18:36 EDT    0.76   1.14    8  313   12  55.0  55.2 1010.0 33.3  1.026 -99.9 -99.99 -9.99
2019/10/18 18:42 EDT    0.79   1.19   10  316   15  55.0  55.2 1010.1 33.4  1.026 -99.9 -99.99 -9.99
2019/10/18 18:48 EDT    0.82   1.28   10  316   15  54.9  55.4 1010.1 33.4  1.026 -99.9 -99.99 -9.99
2019/10/18 18:54 EDT    0.85   1.22   10  315   14  54.7  55.4 1010.2 33.3  1.026 -99.9 -99.99 -9.99
2019/10/18 19:00 EDT    0.89   1.30   12  312   14  54.7  55.4 1010.3 33.4  1.026 -99.9 -99.99 -9.99
2019/10/18 19:06 EDT    0.92   1.25   12  314   17  54.5  55.6 1010.4 33.4  1.026 -99.9 -99.99 -9.99
2019/10/18 19:12 EDT    0.95   1.28   11  318   15  54.3  55.4 1010.5 33.4  1.026 -99.9 -99.99 -9.99
2019/10/18 19:18 EDT    0.99   1.40   11  318   16  54.3  55.6 1010.6 33.4  1.026 -99.9 -99.99 -9.99
2019/10/18 19:24 EDT    1.02   1.42   12  313   16  54.1  55.6 1010.8 33.3  1.026 -99.9 -99.99 -9.99
2019/10/18 19:30 EDT    1.06   1.42   11  315   15  54.0  55.4 1011.0 33.3  1.026 -99.9 -99.99 -9.99
2019/10/18 19:36 EDT    1.10   1.44   10  311   16  54.0  55.6 1011.1 33.3  1.026 -99.9 -99.99 -9.99
2019/10/18 19:42 EDT    1.13   1.49    9  308   14  53.8  55.4 1011.1 33.3  1.026 -99.9 -99.99 -9.99
2019/10/18 19:48 EDT    1.17   1.53    9  283   11  53.2  55.4 1011.2 33.3  1.026 -99.9 -99.99 -9.99
2019/10/18 19:54 EDT    1.22   1.56    9  285   12  52.9  55.4 1011.2 33.3  1.026 -99.9 -99.99 -9.99
2019/10/18 20:00 EDT    1.26   1.59    9  280   11  52.5  55.6 1011.4 33.2  1.026 -99.9 -99.99 -9.99
2019/10/18 20:06 EDT    1.30   1.56    9  280   11  52.3  55.6 1011.4 33.2  1.026 -99.9 -99.99 -9.99
2019/10/18 20:12 EDT    1.35   1.63    9  283   11  52.0  55.4 1011.5 33.3  1.026 -99.9 -99.99 -9.99
2019/10/18 20:18 EDT    1.40   1.72   10  289   13  52.2  55.4 1011.5 33.2  1.026 -99.9 -99.99 -9.99
2019/10/18 20:24 EDT    1.45   1.73   10  285   14  51.8  55.4 1011.8 33.2  1.026 -99.9 -99.99 -9.99
2019/10/18 20:30 EDT    1.50   1.80    9  279   12  51.4  55.4 1012.0 33.2  1.026 -99.9 -99.99 -9.99
2019/10/18 20:36 EDT    1.55   1.89    9  285   11  51.1  55.4 1012.1 32.7  1.026 -99.9 -99.99 -9.99
2019/10/18 20:42 EDT    1.60   1.91    9  292   14  51.1  55.2 1012.1 32.7  1.026 -99.9 -99.99 -9.99
2019/10/18 20:48 EDT    1.66   1.95   10  287   12  51.1  55.2 1012.2 32.6  1.026 -99.9 -99.99 -9.99
2019/10/18 20:54 EDT    1.72   2.03    9  285   12  51.1  55.2 1012.4 32.6  1.026 -99.9 -99.99 -9.99
2019/10/18 21:00 EDT    1.78   2.07    9  287   12  51.1  55.2 1012.5 32.6  1.026 -99.9 -99.99 -9.99
2019/10/18 21:06 EDT    1.84   2.15    7  298   12  50.9  55.2 1012.5 32.6  1.025 -99.9 -99.99 -9.99
2019/10/18 21:12 EDT    1.90   2.25    8  299   11  51.3  55.2 1012.6 32.5  1.025 -99.9 -99.99 -9.99
2019/10/18 21:18 EDT    1.96   2.36    7  291   12  51.1  55.0 1012.7 32.7  1.026 -99.9 -99.99 -9.99
2019/10/18 21:24 EDT    2.03   2.40    8  295   11  50.9  55.0 1012.8 32.5  1.025 -99.9 -99.99 -9.99
2019/10/18 21:30 EDT    2.09   2.55    8  303   13  50.9  55.2 1012.9 32.1  1.025 -99.9 -99.99 -9.99
2019/10/18 21:36 EDT    2.16   2.64    9  305   12  50.7  55.2 1012.9 32.3  1.025 -99.9 -99.99 -9.99
2019/10/18 21:42 EDT    2.22   2.62    9  308   13  50.5  55.0 1013.0 32.3  1.025 -99.9 -99.99 -9.99
2019/10/18 21:48 EDT    2.29   2.74    7  298   11  50.5  55.2 1013.1 32.2  1.025 -99.9 -99.99 -9.99
2019/10/18 21:54 EDT    2.35   2.81    8  303   11  50.4  55.0 1013.1 32.3  1.025 -99.9 -99.99 -9.99
2019/10/18 22:00 EDT    2.42   2.88   10  310   11  50.4  55.0 1013.1 32.3  1.025 -99.9 -99.99 -9.99
2019/10/18 22:06 EDT    2.48   2.97    8  308   12  50.4  55.0 1013.2 32.3  1.025 -99.9 -99.99 -9.99
2019/10/18 22:12 EDT    2.54   3.05    8  306   11  50.4  55.2 1013.3 32.3  1.025 -99.9 -99.99 -9.99
2019/10/18 22:18 EDT    2.60   3.06    7  308   11  50.4  55.2 1013.3 32.3  1.025 -99.9 -99.99 -9.99
2019/10/18 22:24 EDT    2.66   3.12    7  305   11  50.0  55.2 1013.3 32.3  1.025 -99.9 -99.99 -9.99
2019/10/18 22:30 EDT    2.72   3.24    9  305   11  49.8  55.2 1013.4 32.4  1.025 -99.9 -99.99 -9.99
2019/10/18 22:36 EDT    2.77   3.26    8  308   11  49.6  55.2 1013.5 32.6  1.025 -99.9 -99.99 -9.99
2019/10/18 22:42 EDT    2.83   3.28    8  305   11  49.6  55.2 1013.5 32.6  1.025 -99.9 -99.99 -9.99
2019/10/18 22:48 EDT    2.88   3.39    8  310   12  49.6  55.2 1013.5 32.8  1.026 -99.9 -99.99 -9.99
2019/10/18 22:54 EDT    2.92   3.43    8  312   11  49.6  55.0 1013.6 32.8  1.026 -99.9 -99.99 -9.99
2019/10/18 23:00 EDT    2.96   3.48    7  304   11  49.3  55.2 1013.7 32.8  1.026 -99.9 -99.99 -9.99
2019/10/18 23:06 EDT    3.00   3.55    7  308   10  49.3  55.0 1013.7 32.7  1.026 -99.9 -99.99 -9.99
2019/10/18 23:12 EDT    3.04   3.56    8  311    9  48.9  55.0 1013.7 32.6  1.025 -99.9 -99.99 -9.99
2019/10/18 23:18 EDT    3.07   3.56    7  314    9  49.1  55.0 1013.8 32.7  1.026 -99.9 -99.99 -9.99
2019/10/18 23:24 EDT    3.09   3.58    9  308   11  49.1  55.0 1013.8 32.7  1.026 -99.9 -99.99 -9.99
2019/10/18 23:30 EDT    3.11   3.64    9  313   12  49.1  55.0 1013.7 32.7  1.026 -99.9 -99.99 -9.99
2019/10/18 23:36 EDT    3.13   3.62    8  314   11  49.3  55.0 1013.9 32.8  1.026 -99.9 -99.99 -9.99
2019/10/18 23:42 EDT    3.14   3.63    9  313   11  49.1  55.0 1013.9 32.8  1.026 -99.9 -99.99 -9.99
2019/10/18 23:48 EDT    3.15   3.67    9  312   11  48.9  55.0 1013.9 32.9  1.026 -99.9 -99.99 -9.99
2019/10/18 23:54 EDT    3.15   3.67    9  318   12  48.9  55.0 1013.9 32.9  1.026 -99.9 -99.99 -9.99
2019/10/19 00:00 EDT    3.14   3.65   10  314   11  48.7  55.0 1013.9 32.8  1.026 -99.9 -99.99 -9.99
2019/10/19 00:06 EDT    3.13   3.65    9  308   12  48.6  55.0 1014.0 32.8  1.026 -99.9 -99.99 -9.99
2019/10/19 00:12 EDT    3.12   3.61    8  311   11  48.7  54.5 1014.1 32.7  1.026 -99.9 -99.99 -9.99
2019/10/19 00:18 EDT    3.09   3.54    8  307   11  48.7  54.7 1014.1 32.7  1.026 -99.9 -99.99 -9.99
2019/10/19 00:24 EDT    3.07   3.53    7  304   11  48.6  54.7 1014.2 32.7  1.026 -99.9 -99.99 -9.99
2019/10/19 00:30 EDT    3.04   3.52    6  304    9  48.4  54.5 1014.2 32.7  1.026 -99.9 -99.99 -9.99
2019/10/19 00:36 EDT    3.00   3.47    9  311    9  48.2  54.5 1014.2 32.5  1.025 -99.9 -99.99 -9.99
2019/10/19 00:42 EDT    2.96   3.46   10  312   12  48.2  54.0 1014.1 32.6  1.026 -99.9 -99.99 -9.99
2019/10/19 00:48 EDT    2.91   3.39    7  314   11  48.2  54.3 1014.2 32.6  1.026 -99.9 -99.99 -9.99
2019/10/19 00:54 EDT    2.86   3.33   10  313   14  48.2  54.3 1014.2 32.5  1.025 -99.9 -99.99 -9.99
2019/10/19 01:00 EDT    2.80   3.28   10  308   13  48.0  54.1 1014.3 32.6  1.026 -99.9 -99.99 -9.99
2019/10/19 01:06 EDT    2.74   3.21    9  314   13  48.0  54.3 1014.4 32.6  1.026 -99.9 -99.99 -9.99
2019/10/19 01:12 EDT    2.68   3.14   10  312   13  47.8  54.3 1014.5 32.5  1.025 -99.9 -99.99 -9.99
2019/10/19 01:18 EDT    2.61   3.00    9  315   15  47.8  54.0 1014.6 32.7  1.026 -99.9 -99.99 -9.99
2019/10/19 01:24 EDT    2.54   2.98   10  315   13  47.8  54.3 1014.6 32.5  1.026 -99.9 -99.99 -9.99
2019/10/19 01:30 EDT    2.46   2.91   10  315   12  47.5  54.3 1014.7 32.5  1.026 -99.9 -99.99 -9.99
2019/10/19 01:36 EDT    2.39   2.79   11  311   13  47.5  54.1 1014.7 32.5  1.026 -99.9 -99.99 -9.99
2019/10/19 01:42 EDT    2.31   2.74   11  314   14  47.5  54.0 1014.7 32.5  1.025 -99.9 -99.99 -9.99
2019/10/19 01:48 EDT    2.22   2.61   11  308   13  47.5  54.0 1014.8 32.4  1.025 -99.9 -99.99 -9.99
2019/10/19 01:54 EDT    2.14   2.52   10  309   13  47.5  54.0 1014.8 32.5  1.026 -99.9 -99.99 -9.99
2019/10/19 02:00 EDT    2.06   2.45   10  308   12  47.3  53.8 1014.9 32.5  1.026 -99.9 -99.99 -9.99
2019/10/19 02:06 EDT    1.97   2.34   10  310   13  47.1  54.0 1014.9 32.4  1.025 -99.9 -99.99 -9.99
2019/10/19 02:12 EDT    1.88   2.23    9  318   16  47.7  54.0 1015.0 32.5  1.025 -99.9 -99.99 -9.99
2019/10/19 02:18 EDT    1.79   2.09   11  314   14  47.7  53.8 1015.1 32.7  1.026 -99.9 -99.99 -9.99
2019/10/19 02:24 EDT    1.70   2.02   10  313   13  47.5  53.8 1015.1 32.8  1.026 -99.9 -99.99 -9.99
2019/10/19 02:30 EDT    1.61   1.90    8  306   13  47.3  54.0 1015.1 32.8  1.026 -99.9 -99.99 -9.99
2019/10/19 02:36 EDT    1.53   1.81    6  301   11  47.1  54.0 1015.1 32.8  1.026 -99.9 -99.99 -9.99
2019/10/19 02:42 EDT    1.44   1.74    8  303   10  46.9  54.0 1015.1 32.8  1.026 -99.9 -99.99 -9.99
2019/10/19 02:48 EDT    1.35   1.63    8  310   12  47.1  54.0 1015.0 32.7  1.026 -99.9 -99.99 -9.99
2019/10/19 02:54 EDT    1.27   1.55    8  306   14  47.1  53.8 1015.1 32.8  1.026 -99.9 -99.99 -9.99
2019/10/19 03:00 EDT    1.18   1.48   10  307   13  46.9  53.8 1015.1 32.7  1.026 -99.9 -99.99 -9.99
2019/10/19 03:06 EDT    1.10   1.43   11  310   14  46.9  53.8 1015.1 32.7  1.026 -99.9 -99.99 -9.99
2019/10/19 03:12 EDT    1.02   1.32   10  309   13  46.8  53.8 1015.1 32.7  1.026 -99.9 -99.99 -9.99
2019/10/19 03:18 EDT    0.94   1.28   10  314   13  46.8  53.6 1015.0 32.8  1.026 -99.9 -99.99 -9.99
2019/10/19 03:24 EDT    0.87   1.21   10  310   13  46.6  53.6 1015.1 32.7  1.026 -99.9 -99.99 -9.99
2019/10/19 03:30 EDT    0.80   1.11   10  311   12  46.6  53.6 1015.0 32.7  1.026 -99.9 -99.99 -9.99
2019/10/19 03:36 EDT    0.74   1.10   10  315   13  46.4  53.6 1014.9 32.7  1.026 -99.9 -99.99 -9.99
2019/10/19 03:42 EDT    0.67   0.98   10  311   12  46.4  53.6 1015.0 32.7  1.026 -99.9 -99.99 -9.99
2019/10/19 03:48 EDT    0.62   0.97    9  307   12  46.0  53.4 1015.1 32.7  1.026 -99.9 -99.99 -9.99
2019/10/19 03:54 EDT    0.56   0.95    8  301   12  46.0  53.4 1015.3 32.7  1.026 -99.9 -99.99 -9.99
2019/10/19 04:00 EDT    0.51   0.85    8  304   12  46.0  53.4 1015.3 32.6  1.026 -99.9 -99.99 -9.99
2019/10/19 04:06 EDT    0.47   0.88    9  309   11  45.9  53.4 1015.3 32.6  1.026 -99.9 -99.99 -9.99
2019/10/19 04:12 EDT    0.43   0.78    8  310   11  45.7  53.4 1015.3 32.7  1.026 -99.9 -99.99 -9.99
2019/10/19 04:18 EDT    0.40   0.75    8  306   11  45.7  53.4 1015.3 32.6  1.026 -99.9 -99.99 -9.99
2019/10/19 04:24 EDT    0.37   0.75   10  310   12  45.5  53.2 1015.4 32.7  1.026 -99.9 -99.99 -9.99
2019/10/19 04:30 EDT    0.35   0.74    9  310   13  45.7  53.2 1015.3 32.7  1.026 -99.9 -99.99 -9.99
2019/10/19 04:36 EDT    0.33   0.66    9  309   12  45.7  53.4 1015.3 32.7  1.026 -99.9 -99.99 -9.99
2019/10/19 04:42 EDT    0.32   0.74   10  309   11  45.5  53.4 1015.4 32.7  1.026 -99.9 -99.99 -9.99
2019/10/19 04:48 EDT    0.31   0.72    8  306   13  45.5  53.6 1015.4 32.7  1.026 -99.9 -99.99 -9.99
2019/10/19 04:54 EDT    0.31   0.67   10  309   12  45.5  53.6 1015.5 32.8  1.026 -99.9 -99.99 -9.99
2019/10/19 05:00 EDT    0.31   0.78    8  313   12  45.5  53.6 1015.7 32.8  1.026 -99.9 -99.99 -9.99
2019/10/19 05:06 EDT    0.32   0.68    8  316   11  45.9  53.6 1015.7 32.8  1.026 -99.9 -99.99 -9.99
2019/10/19 05:12 EDT    0.33   0.74   10  311   13  45.7  53.6 1015.7 32.8  1.026 -99.9 -99.99 -9.99
2019/10/19 05:18 EDT    0.35   0.80   11  310   15  46.0  53.8 1015.7 32.8  1.026 -99.9 -99.99 -9.99
2019/10/19 05:24 EDT    0.37   0.73    9  313   15  46.2  53.8 1015.7 32.8  1.026 -99.9 -99.99 -9.99
2019/10/19 05:30 EDT    0.40   0.83   11  309   12  46.0  53.8 1015.7 32.8  1.026 -99.9 -99.99 -9.99
2019/10/19 05:36 EDT    0.43   0.80   11  314   13  46.0  53.8 1015.7 32.7  1.026 -99.9 -99.99 -9.99
2019/10/19 05:42 EDT    0.46   0.82    9  312   13  45.9  54.0 1015.8 32.8  1.026 -99.9 -99.99 -9.99
2019/10/19 05:48 EDT    0.50   0.89    9  313   12  45.9  54.0 1015.8 32.7  1.026 -99.9 -99.99 -9.99
2019/10/19 05:54 EDT    0.54   0.86   10  312   13  45.7  53.8 1015.7 32.8  1.026 -99.9 -99.99 -9.99
2019/10/19 06:00 EDT    0.58   0.87    9  313   13  46.0  53.8 1015.8 32.8  1.026 -99.9 -99.99 -9.99
2019/10/19 06:06 EDT    0.62   0.93   10  312   12  46.0  53.8 1015.8 32.8  1.026 -99.9 -99.99 -9.99
2019/10/19 06:12 EDT    0.67   0.98   10  314   13  45.5  54.0 1015.8 32.8  1.026 -99.9 -99.99 -9.99
2019/10/19 06:18 EDT    0.71   1.05    8  313   12  45.9  54.0 1015.8 32.8  1.026 -99.9 -99.99 -9.99
2019/10/19 06:24 EDT    0.76   1.12    8  307   10  45.9  54.0 1015.9 32.8  1.026 -99.9 -99.99 -9.99
2019/10/19 06:30 EDT    0.81   1.16    9  312   12  45.9  54.0 1015.8 32.8  1.026 -99.9 -99.99 -9.99
2019/10/19 06:36 EDT    0.86   1.17    9  311   12  45.9  54.0 1015.8 32.8  1.026 -99.9 -99.99 -9.99
2019/10/19 06:42 EDT    0.91   1.24    7  320   12  46.0  54.0 1015.8 32.8  1.026 -99.9 -99.99 -9.99
2019/10/19 06:48 EDT    0.96   1.29    7  315   11  45.9  53.8 1015.8 32.8  1.026 -99.9 -99.99 -9.99
2019/10/19 06:54 EDT    1.02   1.26    8  316   11  46.0  53.8 1015.9 32.8  1.026 -99.9 -99.99 -9.99
2019/10/19 07:00 EDT    1.07   1.36    8  304   11  46.0  53.8 1015.9 32.8  1.026 -99.9 -99.99 -9.99
2019/10/19 07:06 EDT    1.12   1.42    7  301   11  45.9  53.8 1016.0 32.8  1.026 -99.9 -99.99 -9.99
2019/10/19 07:12 EDT    1.17   1.42    8  307   11  45.7  53.8 1016.1 32.7  1.026 -99.9 -99.99 -9.99
2019/10/19 07:18 EDT    1.23   1.49    7  297   10  45.7  53.8 1016.2 32.7  1.026 -99.9 -99.99 -9.99
2019/10/19 07:24 EDT    1.28   1.58    7  293   11  45.7  53.6 1016.3 32.7  1.026 -99.9 -99.99 -9.99
2019/10/19 07:30 EDT    1.33   1.66    8  292   11  45.7  53.6 1016.4 32.6  1.026 -99.9 -99.99 -9.99
2019/10/19 07:36 EDT    1.38   1.70    8  288   11  45.5  53.6 1016.4 32.7  1.026 -99.9 -99.99 -9.99
2019/10/19 07:42 EDT    1.44   1.80    7  303   10  45.7  53.6 1016.4 32.7  1.026 -99.9 -99.99 -9.99
2019/10/19 07:48 EDT    1.49   1.82    7  292    9  45.7  53.6 1016.4 32.6  1.026 -99.9 -99.99 -9.99
2019/10/19 07:54 EDT    1.54   1.91    6  294   10  45.5  53.6 1016.4 32.6  1.026 -99.9 -99.99 -9.99
2019/10/19 08:00 EDT    1.60   1.95    8  308   10  45.3  53.6 1016.4 32.6  1.026 -99.9 -99.99 -9.99
2019/10/19 08:06 EDT    1.65   1.98    8  312   11  45.5  53.6 1016.4 32.7  1.026 -99.9 -99.99 -9.99
2019/10/19 08:12 EDT    1.70   2.09    9  310   11  45.5  53.6 1016.5 32.7  1.026 -99.9 -99.99 -9.99
2019/10/19 08:18 EDT    1.76   2.19    8  309   11  45.9  53.6 1016.6 32.6  1.026 -99.9 -99.99 -9.99
2019/10/19 08:24 EDT    1.82   2.25    9  307   12  46.2  53.6 1016.6 32.7  1.026 -99.9 -99.99 -9.99
2019/10/19 08:30 EDT    1.87   2.31   10  308   13  46.4  53.6 1016.7 32.7  1.026 -99.9 -99.99 -9.99
2019/10/19 08:36 EDT    1.93   2.42   11  312   13  46.8  53.6 1016.7 32.8  1.026 -99.9 -99.99 -9.99
2019/10/19 08:42 EDT    1.99   2.44   11  317   13  46.8  53.8 1016.7 32.7  1.026 -99.9 -99.99 -9.99
2019/10/19 08:48 EDT    2.04   2.50   10  316   15  46.9  53.8 1016.8 32.7  1.026 -99.9 -99.99 -9.99
2019/10/19 08:54 EDT    2.10   2.62   11  314   14  46.8  53.8 1016.8 32.7  1.026 -99.9 -99.99 -9.99
2019/10/19 09:00 EDT    2.16   2.65   11  310   15  46.9  53.8 1016.9 32.7  1.026 -99.9 -99.99 -9.99
2019/10/19 09:06 EDT    2.22   2.74    9  316   14  47.3  53.8 1017.0 32.7  1.026 -99.9 -99.99 -9.99
2019/10/19 09:12 EDT    2.29   2.82    9  320   15  47.3  53.8 1017.0 32.8  1.026 -99.9 -99.99 -9.99
2019/10/19 09:18 EDT    2.35   2.91    9  313   13  47.7  53.8 1017.1 32.8  1.026 -99.9 -99.99 -9.99
2019/10/19 09:24 EDT    2.41   2.99    9  317   13  47.7  54.0 1017.2 32.7  1.026 -99.9 -99.99 -9.99
2019/10/19 09:30 EDT    2.47   3.02    8  320   14  48.0  53.8 1017.2 32.8  1.026 -99.9 -99.99 -9.99
2019/10/19 09:36 EDT    2.54   3.09   11  317   13  47.8  54.0 1017.2 32.8  1.026 -99.9 -99.99 -9.99
2019/10/19 09:42 EDT    2.60   3.15    8  307   12  48.2  54.0 1017.2 32.8  1.026 -99.9 -99.99 -9.99
2019/10/19 09:48 EDT    2.66   3.21   10  306   11  48.2  54.0 1017.3 32.8  1.026 -99.9 -99.99 -9.99
2019/10/19 09:54 EDT    2.72   3.26    8  308   12  48.2  54.0 1017.3 32.8  1.026 -99.9 -99.99 -9.99
2019/10/19 10:00 EDT    2.79   3.30    9  309   11  48.2  54.1 1017.3 32.8  1.026 -99.9 -99.99 -9.99
2019/10/19 10:06 EDT    2.85   3.36    7  312   11  48.6  54.1 1017.2 32.8  1.026 -99.9 -99.99 -9.99
2019/10/19 10:12 EDT    2.91   3.35    6  350   10  48.7  54.1 1017.2 32.8  1.026 -99.9 -99.99 -9.99
2019/10/19 10:18 EDT    2.97   3.40    6  319   10  49.1  54.1 1017.1 32.8  1.026 -99.9 -99.99 -9.99
2019/10/19 10:24 EDT    3.03   3.48    8  316    9  48.7  54.0 1017.1 32.7  1.026 -99.9 -99.99 -9.99
2019/10/19 10:30 EDT    3.09   3.51    6  327    9  49.6  53.8 1017.0 32.7  1.026 -99.9 -99.99 -9.99
2019/10/19 10:36 EDT    3.14   3.56    7  315    9  49.1  54.0 1017.0 32.8  1.026 -99.9 -99.99 -9.99
2019/10/19 10:42 EDT    3.20   3.67    7  332   10  49.1  54.1 1017.1 32.8  1.026 -99.9 -99.99 -9.99
2019/10/19 10:48 EDT    3.25   3.68    8  311   11  49.5  54.0 1017.0 32.7  1.026 -99.9 -99.99 -9.99
2019/10/19 10:54 EDT    3.30   3.74    5  329    9  50.2  53.8 1016.9 32.8  1.026 -99.9 -99.99 -9.99
2019/10/19 11:00 EDT    3.35   3.77    6  329   11  50.0  53.8 1016.9 32.8  1.026 -99.9 -99.99 -9.99
2019/10/19 11:06 EDT    3.39   3.81    6    5   10  50.2  53.8 1016.8 32.8  1.026 -99.9 -99.99 -9.99
2019/10/19 11:12 EDT    3.43   3.84    5  348    8  50.2  53.8 1016.9 32.8  1.026 -99.9 -99.99 -9.99
2019/10/19 11:18 EDT    3.47   3.85    5  340    8  50.4  53.8 1016.9 32.8  1.026 -99.9 -99.99 -9.99
2019/10/19 11:24 EDT    3.51   3.88    4    9    9  50.4  53.8 1016.9 32.8  1.026 -99.9 -99.99 -9.99
2019/10/19 11:30 EDT    3.54   3.91    5  317    7  51.1  53.8 1017.0 32.8  1.026 -99.9 -99.99 -9.99
2019/10/19 11:36 EDT    3.56   3.95    6  323    9  50.7  53.8 1017.0 32.7  1.026 -99.9 -99.99 -9.99
2019/10/19 11:42 EDT    3.58   3.95    8  299   11  50.9  53.4 1017.1 32.7  1.026 -99.9 -99.99 -9.99
2019/10/19 11:48 EDT    3.60   3.94    4  272   10  51.1  53.4 1017.1 32.7  1.026 -99.9 -99.99 -9.99
2019/10/19 11:54 EDT    3.61   4.01    6  302   12  51.6  53.6 1017.1 32.7  1.026 -99.9 -99.99 -9.99
2019/10/19 12:00 EDT    3.62   4.04    6  311   10  51.1  54.0 1017.1 32.9  1.026 -99.9 -99.99 -9.99
2019/10/19 12:06 EDT    3.62   4.00    6  312   10  52.0  54.1 1017.1 32.8  1.026 -99.9 -99.99 -9.99
2019/10/19 12:12 EDT    3.62   4.04    6  274    9  52.0  53.8 1017.1 32.6  1.026 -99.9 -99.99 -9.99
2019/10/19 12:18 EDT    3.61   4.04    4  296    9  52.5  53.6 1017.0 32.6  1.026 -99.9 -99.99 -9.99
2019/10/19 12:24 EDT    3.60   3.97    6  278   11  52.5  53.6 1016.9 32.6  1.026 -99.9 -99.99 -9.99
2019/10/19 12:30 EDT    3.59   4.00    4  274    7  53.1  53.6 1016.8 32.6  1.026 -99.9 -99.99 -9.99
2019/10/19 12:36 EDT    3.56   3.98    6  258   10  52.9  53.6 1016.7 32.6  1.026 -99.9 -99.99 -9.99
2019/10/19 12:42 EDT    3.54   3.89    5  254    8  53.2  53.6 1016.6 32.6  1.026 -99.9 -99.99 -9.99
2019/10/19 12:48 EDT    3.50   3.94    7  261    8  53.2  53.6 1016.5 32.6  1.026 -99.9 -99.99 -9.99
2019/10/19 12:54 EDT    3.47   3.88    5  262   10  53.1  53.6 1016.4 32.6  1.026 -99.9 -99.99 -9.99
2019/10/19 13:00 EDT    3.43   3.80    5  257    6  53.6  53.6 1016.3 32.6  1.026 -99.9 -99.99 -9.99
2019/10/19 13:06 EDT    3.38   3.76    5  237    7  53.4  53.6 1016.2 32.6  1.026 -99.9 -99.99 -9.99
2019/10/19 13:12 EDT    3.33   3.69    4  248    6  53.6  53.6 1016.2 32.6  1.026 -99.9 -99.99 -9.99
2019/10/19 13:18 EDT    3.27   3.63    5  276    6  54.3  53.6 1016.2 32.5  1.026 -99.9 -99.99 -9.99
2019/10/19 13:24 EDT    3.21   3.60    4  269    6  54.5  53.6 1016.1 32.5  1.026 -99.9 -99.99 -9.99
2019/10/19 13:30 EDT    3.15   3.59    6  266    7  54.7  53.6 1016.2 32.5  1.026 -99.9 -99.99 -9.99
2019/10/19 13:36 EDT    3.08   3.56    3  239    7  54.9  53.4 1016.1 32.6  1.026 -99.9 -99.99 -9.99
2019/10/19 13:42 EDT    3.01   3.50    5  241    6  54.9  53.4 1016.0 32.5  1.026 -99.9 -99.99 -9.99
2019/10/19 13:48 EDT    2.94   3.43    3  245    8  54.7  53.4 1016.0 32.5  1.026 -99.9 -99.99 -9.99
2019/10/19 13:54 EDT    2.87   3.40    8  243    9  54.9  53.4 1015.9 32.5  1.026 -99.9 -99.99 -9.99
2019/10/19 14:00 EDT    2.79   3.28   12  207   14  54.3  53.4 1015.9 32.5  1.026 -99.9 -99.99 -9.99
2019/10/19 14:06 EDT    2.71   3.18   11  212   13  54.1  53.4 1015.9 32.6  1.026 -99.9 -99.99 -9.99
2019/10/19 14:12 EDT    2.63   3.10    9  213   13  54.1  53.6 1015.8 32.6  1.026 -99.9 -99.99 -9.99
2019/10/19 14:18 EDT    2.54   3.03   10  210   12  54.5  53.6 1015.7 32.6  1.026 -99.9 -99.99 -9.99
2019/10/19 14:24 EDT    2.46   2.96   10  211   13  54.1  53.6 1015.7 32.6  1.026 -99.9 -99.99 -9.99
2019/10/19 14:30 EDT    2.37   2.83   11  209   13  54.5  53.6 1015.7 32.6  1.026 -99.9 -99.99 -9.99
2019/10/19 14:36 EDT    2.28   2.79   11  208   15  54.3  53.4 1015.7 32.6  1.026 -99.9 -99.99 -9.99
2019/10/19 14:42 EDT    2.19   2.69   12  205   15  54.7  53.4 1015.7 32.6  1.026 -99.9 -99.99 -9.99
2019/10/19 14:48 EDT    2.11   2.56   12  211   14  54.7  53.4 1015.8 32.6  1.026 -99.9 -99.99 -9.99
2019/10/19 14:54 EDT    2.02   2.50   10  213   13  54.9  53.6 1015.8 32.7  1.026 -99.9 -99.99 -9.99
2019/10/19 15:00 EDT    1.93   2.35   12  216   14  54.9  53.6 1015.8 32.6  1.026 -99.9 -99.99 -9.99
2019/10/19 15:06 EDT    1.84   2.25   13  209   15  54.7  53.6 1015.7 32.6  1.026 -99.9 -99.99 -9.99
2019/10/19 15:12 EDT    1.76   2.21   12  215   15  54.7  53.6 1015.7 32.6  1.026 -99.9 -99.99 -9.99
2019/10/19 15:18 EDT    1.67   2.10   12  216   13  54.7  53.6 1015.6 32.6  1.026 -99.9 -99.99 -9.99
2019/10/19 15:24 EDT    1.59   2.04   12  219   14  54.7  53.8 1015.6 32.6  1.026 -99.9 -99.99 -9.99
2019/10/19 15:30 EDT    1.51   1.93   11  215   15  55.2  53.8 1015.7 32.6  1.026 -99.9 -99.99 -9.99
2019/10/19 15:36 EDT    1.43   1.84   11  221   14  55.2  53.8 1015.7 32.6  1.026 -99.9 -99.99 -9.99
2019/10/19 15:42 EDT    1.35   1.75   12  212   15  55.6  53.6 1015.7 32.7  1.026 -99.9 -99.99 -9.99
2019/10/19 15:48 EDT    1.28   1.66   12  220   16  55.2  53.6 1015.6 32.6  1.026 -99.9 -99.99 -9.99
2019/10/19 15:54 EDT    1.21   1.57   12  225   15  55.4  53.6 1015.6 32.7  1.026 -99.9 -99.99 -9.99
2019/10/19 16:00 EDT    1.14   1.53   12  222   15  55.8  53.6 1015.6 32.7  1.026 -99.9 -99.99 -9.99
2019/10/19 16:06 EDT    1.08   1.44   13  221   14  55.6  53.8 1015.6 32.6  1.026 -99.9 -99.99 -9.99
2019/10/19 16:12 EDT    1.01   1.36   12  219   15  55.9  53.6 1015.7 32.7  1.026 -99.9 -99.99 -9.99
2019/10/19 16:18 EDT    0.96   1.31   11  221   15  55.8  53.8 1015.7 32.6  1.026 -99.9 -99.99 -9.99
2019/10/19 16:24 EDT    0.90   1.33   13  221   15  55.6  53.6 1015.7 32.6  1.026 -99.9 -99.99 -9.99
2019/10/19 16:30 EDT    0.85   1.21   12  223   14  55.8  53.6 1015.7 32.6  1.026 -99.9 -99.99 -9.99
2019/10/19 16:36 EDT    0.81   1.18   11  218   14  56.1  53.6 1015.6 32.7  1.026 -99.9 -99.99 -9.99
2019/10/19 16:42 EDT    0.77   1.22   12  226   14  55.8  53.8 1015.5 32.7  1.026 -99.9 -99.99 -9.99
2019/10/19 16:48 EDT    0.73   1.13   11  230   14  55.6  53.8 1015.6 32.7  1.026 -99.9 -99.99 -9.99
2019/10/19 16:54 EDT    0.70   1.14   11  228   14  55.9  53.8 1015.6 32.7  1.026 -99.9 -99.99 -9.99
2019/10/19 17:00 EDT    0.67   1.13   12  224   14  55.8  53.8 1015.5 32.7  1.026 -99.9 -99.99 -9.99
2019/10/19 17:06 EDT    0.65   1.08   12  232   15  55.8  53.8 1015.5 32.6  1.026 -99.9 -99.99 -9.99
2019/10/19 17:12 EDT    0.63   1.03   11  233   13  55.9  53.8 1015.6 32.7  1.026 -99.9 -99.99 -9.99
2019/10/19 17:18 EDT    0.61   1.10   11  229   14  55.9  53.8 1015.6 32.7  1.026 -99.9 -99.99 -9.99
2019/10/19 17:24 EDT    0.60   1.11   11  231   14  55.9  54.0 1015.6 32.6  1.026 -99.9 -99.99 -9.99
2019/10/19 17:30 EDT    0.59   1.10   12  234   13  55.8  54.0 1015.7 32.6  1.026 -99.9 -99.99 -9.99
2019/10/19 17:36 EDT    0.58   1.07   10  234   13  55.8  53.8 1015.7 32.7  1.026 -99.9 -99.99 -9.99
2019/10/19 17:42 EDT    0.58   1.05   10  237   12  55.4  53.8 1015.7 32.7  1.026 -99.9 -99.99 -9.99
2019/10/19 17:48 EDT    0.58   1.11   12  240   13  55.2  54.0 1015.8 32.6  1.026 -99.9 -99.99 -9.99
2019/10/19 17:54 EDT    0.59   1.11   11  239   13  55.2  53.8 1015.9 32.7  1.026 -99.9 -99.99 -9.99
2019/10/19 18:00 EDT    0.60   1.08    9  243   12  55.4  53.8 1015.9 32.7  1.026 -99.9 -99.99 -9.99
2019/10/19 18:06 EDT    0.61   1.08   10  248   12  55.0  54.0 1016.0 32.6  1.026 -99.9 -99.99 -9.99
2019/10/19 18:12 EDT    0.62   1.04    9  249   12  55.0  53.8 1016.0 32.6  1.026 -99.9 -99.99 -9.99
2019/10/19 18:18 EDT    0.63   1.09   10  249   11  55.0  53.8 1016.0 32.6  1.026 -99.9 -99.99 -9.99
2019/10/19 18:24 EDT    0.65   1.06    9  247   12  55.0  53.8 1016.1 32.6  1.026 -99.9 -99.99 -9.99
2019/10/19 18:30 EDT    0.66   1.10   10  246   11  54.9  53.8 1016.2 32.6  1.026 -99.9 -99.99 -9.99
2019/10/19 18:36 EDT    0.68   1.08   11  248   12  54.7  53.8 1016.2 32.6  1.026 -99.9 -99.99 -9.99
2019/10/19 18:42 EDT    0.70   1.03    9  244   12  54.7  53.8 1016.3 32.6  1.026 -99.9 -99.99 -9.99
2019/10/19 18:48 EDT    0.72   1.14   10  240   11  54.3  54.0 1016.4 32.5  1.026 -99.9 -99.99 -9.99
2019/10/19 18:54 EDT    0.74   1.12   10  247   11  54.3  54.0 1016.5 32.5  1.026 -99.9 -99.99 -9.99
2019/10/19 19:00 EDT    0.76   1.09    9  250   12  54.3  54.0 1016.5 32.5  1.026 -99.9 -99.99 -9.99
2019/10/19 19:06 EDT    0.78   1.14   10  249   12  54.5  54.0 1016.6 32.5  1.026 -99.9 -99.99 -9.99
2019/10/19 19:12 EDT    0.80   1.14   10  254   11  54.3  54.0 1016.6 32.5  1.026 -99.9 -99.99 -9.99
2019/10/19 19:18 EDT    0.83   1.13    8  249   11  54.1  54.0 1016.6 32.5  1.025 -99.9 -99.99 -9.99
2019/10/19 19:24 EDT    0.85   1.17    8  248   10  54.1  54.0 1016.6 32.4  1.025 -99.9 -99.99 -9.99
2019/10/19 19:30 EDT    0.87   1.18    7  255   10  54.0  54.0 1016.6 32.5  1.026 -99.9 -99.99 -9.99
2019/10/19 19:36 EDT    0.89   1.17    8  261   10  53.8  54.0 1016.6 32.5  1.026 -99.9 -99.99 -9.99
2019/10/19 19:42 EDT    0.91   1.23    9  256   10  53.8  54.0 1016.6 32.4  1.025 -99.9 -99.99 -9.99
2019/10/19 19:48 EDT    0.94   1.24    7  255   11  53.8  54.0 1016.7 32.4  1.025 -99.9 -99.99 -9.99
2019/10/19 19:54 EDT    0.96   1.26    7  256    9  53.6  54.0 1016.7 32.4  1.025 -99.9 -99.99 -9.99
2019/10/19 20:00 EDT    0.99   1.38    6  257    9  53.8  54.0 1016.7 32.4  1.025 -99.9 -99.99 -9.99
2019/10/19 20:06 EDT    1.01   1.29    7  264   10  54.0  53.8 1016.7 32.5  1.026 -99.9 -99.99 -9.99
2019/10/19 20:12 EDT    1.04   1.36    7  262    9  54.1  53.8 1016.7 32.5  1.026 -99.9 -99.99 -9.99
2019/10/19 20:18 EDT    1.06   1.34    7  260    9  54.1  53.8 1016.7 32.5  1.026 -99.9 -99.99 -9.99
2019/10/19 20:24 EDT    1.09   1.35    7  259    9  54.1  53.8 1016.7 32.4  1.025 -99.9 -99.99 -9.99
2019/10/19 20:30 EDT    1.12   1.40    7  252    9  54.1  53.8 1016.8 32.4  1.025 -99.9 -99.99 -9.99
2019/10/19 20:36 EDT    1.15   1.43    7  258    9  53.8  53.8 1016.9 32.4  1.025 -99.9 -99.99 -9.99
2019/10/19 20:42 EDT    1.18   1.43    8  261    9  54.1  53.8 1016.9 32.4  1.025 -99.9 -99.99 -9.99
2019/10/19 20:48 EDT    1.22   1.53    8  266   11  54.1  53.8 1016.9 32.4  1.025 -99.9 -99.99 -9.99
2019/10/19 20:54 EDT    1.25   1.54    8  264   11  54.3  53.8 1017.0 32.4  1.026 -99.9 -99.99 -9.99
2019/10/19 21:00 EDT    1.29   1.56    8  260   11  54.1  53.8 1017.0 32.4  1.025 -99.9 -99.99 -9.99
2019/10/19 21:06 EDT    1.33   1.61    8  255   10  54.1  53.8 1017.1 32.4  1.026 -99.9 -99.99 -9.99
2019/10/19 21:12 EDT    1.37   1.65    8  260   10  54.1  53.8 1017.1 32.4  1.025 -99.9 -99.99 -9.99
2019/10/19 21:18 EDT    1.42   1.68    8  262   10  54.1  53.8 1017.1 32.3  1.025 -99.9 -99.99 -9.99
2019/10/19 21:24 EDT    1.46   1.72    7  263   10  54.3  53.8 1017.1 32.2  1.025 -99.9 -99.99 -9.99
2019/10/19 21:30 EDT    1.51   1.79    5  274    8  54.1  53.8 1017.1 32.2  1.025 -99.9 -99.99 -9.99
2019/10/19 21:36 EDT    1.56   1.84    5  271    6  54.1  53.8 1017.0 32.2  1.025 -99.9 -99.99 -9.99
2019/10/19 21:42 EDT    1.62   1.89    5  263    6  54.3  53.8 1017.1 32.2  1.025 -99.9 -99.99 -9.99
2019/10/19 21:48 EDT    1.67   1.98    4  283    6  54.0  54.1 1017.1 32.3  1.025 -99.9 -99.99 -9.99
2019/10/19 21:54 EDT    1.73   2.07    5  281    6  54.0  54.1 1017.1 32.3  1.025 -99.9 -99.99 -9.99
2019/10/19 22:00 EDT    1.78   2.17    5  279    6  54.0  54.1 1017.1 32.3  1.025 -99.9 -99.99 -9.99
2019/10/19 22:06 EDT    1.84   2.22    4  278    5  54.1  54.1 1017.1 32.4  1.025 -99.9 -99.99 -9.99
2019/10/19 22:12 EDT    1.91   2.29    3  276    5  54.0  54.1 1017.3 32.4  1.025 -99.9 -99.99 -9.99
2019/10/19 22:18 EDT    1.97   2.42    1  228    4  53.4  54.1 1017.3 32.4  1.025 -99.9 -99.99 -9.99
2019/10/19 22:24 EDT    2.03   2.44    2   56    3  52.2  54.3 1017.4 32.4  1.025 -99.9 -99.99 -9.99
2019/10/19 22:30 EDT    2.09   2.53    2   18    3  52.5  54.3 1017.3 32.3  1.025 -99.9 -99.99 -9.99
2019/10/19 22:36 EDT    2.16   2.61    3  341    4  52.5  54.3 1017.3 32.4  1.025 -99.9 -99.99 -9.99
2019/10/19 22:42 EDT    2.22   2.61    1   26    4  52.5  54.3 1017.3 32.4  1.025 -99.9 -99.99 -9.99
2019/10/19 22:48 EDT    2.29   2.72    1   24    2  52.3  54.3 1017.3 32.3  1.025 -99.9 -99.99 -9.99
2019/10/19 22:54 EDT    2.35   2.78    6  195    7  52.3  54.3 1017.3 32.4  1.025 -99.9 -99.99 -9.99
2019/10/19 23:00 EDT    2.42   2.81    5  227    6  53.4  54.3 1017.3 32.3  1.025 -99.9 -99.99 -9.99
2019/10/19 23:06 EDT    2.48   2.96    5  231    6  53.1  54.3 1017.3 32.3  1.025 -99.9 -99.99 -9.99
2019/10/19 23:12 EDT    2.54   3.01    5  229    6  52.7  54.1 1017.5 32.4  1.025 -99.9 -99.99 -9.99
2019/10/19 23:18 EDT    2.60   3.04    4  239    7  52.3  54.1 1017.6 32.3  1.025 -99.9 -99.99 -9.99
2019/10/19 23:24 EDT    2.66   3.14    3  241    5  52.5  54.1 1017.7 32.3  1.025 -99.9 -99.99 -9.99
2019/10/19 23:30 EDT    2.72   3.13    3  254    6  52.5  54.1 1017.6 32.4  1.025 -99.9 -99.99 -9.99
2019/10/19 23:36 EDT    2.77   3.22    2  232    4  52.3  54.1 1017.6 32.4  1.025 -99.9 -99.99 -9.99
2019/10/19 23:42 EDT    2.82   3.26    3  242    4  52.2  54.1 1017.5 32.3  1.025 -99.9 -99.99 -9.99
2019/10/19 23:48 EDT    2.87   3.25    2  252    4  52.2  54.1 1017.5 32.3  1.025 -99.9 -99.99 -9.99
2019/10/19 23:54 EDT    2.91   3.33    1  286    2  52.0  54.0 1017.5 32.4  1.025 -99.9 -99.99 -9.99
2019/10/20 00:00 EDT    2.95   3.44    1  321    2  52.2  54.0 1017.5 32.4  1.025 -99.9 -99.99 -9.99
2019/10/20 00:06 EDT    2.99   3.39    0    0    2  51.3  54.0 1017.3 32.3  1.025 -99.9 -99.99 -9.99
2019/10/20 00:12 EDT    3.02   3.42    1  165    2  51.3  54.0 1017.4 32.3  1.025 -99.9 -99.99 -9.99
2019/10/20 00:18 EDT    3.04   3.53    0    2    1  51.4  54.0 1017.3 32.4  1.025 -99.9 -99.99 -9.99
2019/10/20 00:24 EDT    3.07   3.51    0   28    2  50.9  54.0 1017.3 32.5  1.025 -99.9 -99.99 -9.99
2019/10/20 00:30 EDT    3.08   3.50    1   53    2  49.6  54.1 1017.4 32.5  1.026 -99.9 -99.99 -9.99
2019/10/20 00:36 EDT    3.09   3.57    1   62    2  49.6  54.3 1017.4 32.5  1.025 -99.9 -99.99 -9.99
2019/10/20 00:42 EDT    3.10   3.56    0   21    1  49.5  54.1 1017.3 32.5  1.026 -99.9 -99.99 -9.99
2019/10/20 00:48 EDT    3.10   3.57    1   35    3  49.1  54.1 1017.4 32.5  1.026 -99.9 -99.99 -9.99
2019/10/20 00:54 EDT    3.10   3.57    1   43    2  48.7  54.1 1017.5 32.5  1.025 -99.9 -99.99 -9.99
2019/10/20 01:00 EDT    3.09   3.55    0   47    1  48.9  54.1 1017.6 32.6  1.026 -99.9 -99.99 -9.99
2019/10/20 01:06 EDT    3.07   3.51    0   67    1  48.7  54.1 1017.6 32.5  1.026 -99.9 -99.99 -9.99
2019/10/20 01:12 EDT    3.05   3.55    1   41    1  48.6  54.1 1017.6 32.5  1.026 -99.9 -99.99 -9.99
2019/10/20 01:18 EDT    3.02   3.43    0   36    1  49.1  54.1 1017.7 32.6  1.026 -99.9 -99.99 -9.99
2019/10/20 01:24 EDT    2.99   3.41    1   28    1  48.4  54.1 1017.7 32.6  1.026 -99.9 -99.99 -9.99
2019/10/20 01:30 EDT    2.96   3.42    1   41    2  48.2  54.3 1017.7 32.5  1.026 -99.9 -99.99 -9.99
2019/10/20 01:36 EDT    2.91   3.31    0   57    2  48.2  54.3 1017.7 32.6  1.026 -99.9 -99.99 -9.99
2019/10/20 01:42 EDT    2.87   3.26    0   47    1  48.0  54.5 1017.7 32.6  1.026 -99.9 -99.99 -9.99
2019/10/20 01:48 EDT    2.82   3.19    0   43    0  48.0  54.5 1017.7 32.6  1.026 -99.9 -99.99 -9.99
2019/10/20 01:54 EDT    2.76   3.10    1   53    1  48.0  54.5 1017.6 32.6  1.026 -99.9 -99.99 -9.99
2019/10/20 02:00 EDT    2.70   3.08    1   17    2  47.8  54.5 1017.6 32.6  1.026 -99.9 -99.99 -9.99
2019/10/20 02:06 EDT    2.64   3.01    1   25    1  47.8  54.5 1017.5 32.6  1.026 -99.9 -99.99 -9.99
2019/10/20 02:12 EDT    2.57   2.95    1   23    2  47.5  54.5 1017.6 32.6  1.026 -99.9 -99.99 -9.99
2019/10/20 02:18 EDT    2.50   2.93    0   14    1  47.5  54.5 1017.7 32.6  1.026 -99.9 -99.99 -9.99
2019/10/20 02:24 EDT    2.42   2.76    1   33    2  47.8  54.1 1017.7 32.5  1.026 -99.9 -99.99 -9.99
2019/10/20 02:30 EDT    2.35   2.69    1   57    1  47.7  54.1 1017.7 32.5  1.026 -99.9 -99.99 -9.99
2019/10/20 02:36 EDT    2.27   2.67    2   62    2  47.3  54.3 1017.5 32.6  1.026 -99.9 -99.99 -9.99
2019/10/20 02:42 EDT    2.18   2.51    0   35    2  47.3  54.1 1017.7 32.5  1.026 -99.9 -99.99 -9.99
2019/10/20 02:48 EDT    2.10   2.42    1   28    1  47.7  54.0 1017.8 32.5  1.026 -99.9 -99.99 -9.99
2019/10/20 02:54 EDT    2.02   2.33    1   36    2  47.5  53.8 1017.7 32.4  1.025 -99.9 -99.99 -9.99
2019/10/20 03:00 EDT    1.93   2.25    1   57    2  47.1  53.6 1017.6 32.5  1.026 -99.9 -99.99 -9.99
2019/10/20 03:06 EDT    1.85   2.12    1   38    1  47.7  53.6 1017.5 32.5  1.026 -99.9 -99.99 -9.99
2019/10/20 03:12 EDT    1.76   2.10    1   30    1  47.5  53.6 1017.5 32.4  1.026 -99.9 -99.99 -9.99
2019/10/20 03:18 EDT    1.67   2.02    1   18    1  47.3  53.6 1017.5 32.5  1.026 -99.9 -99.99 -9.99
2019/10/20 03:24 EDT    1.59   1.99    2   33    2  47.7  53.6 1017.5 32.4  1.025 -99.9 -99.99 -9.99
2019/10/20 03:30 EDT    1.50   1.86    2   32    3  47.1  53.4 1017.5 32.5  1.026 -99.9 -99.99 -9.99
2019/10/20 03:36 EDT    1.42   1.76    1    8    2  47.8  53.4 1017.8 32.5  1.026 -99.9 -99.99 -9.99
2019/10/20 03:42 EDT    1.34   1.73    2   28    2  48.0  53.4 1017.7 32.5  1.026 -99.9 -99.99 -9.99
2019/10/20 03:48 EDT    1.26   1.64    2    8    3  48.0  53.4 1017.7 32.5  1.026 -99.9 -99.99 -9.99
2019/10/20 03:54 EDT    1.18   1.60    2  345    3  48.4  53.4 1017.7 32.4  1.026 -99.9 -99.99 -9.99
2019/10/20 04:00 EDT    1.10   1.53    5  338    5  48.6  53.4 1017.7 32.5  1.026 -99.9 -99.99 -9.99
2019/10/20 04:06 EDT    1.03   1.49    4  340    6  48.7  53.4 1017.7 32.4  1.025 -99.9 -99.99 -9.99
2019/10/20 04:12 EDT    0.96   1.36    5  336    7  49.1  53.4 1017.7 32.4  1.025 -99.9 -99.99 -9.99
2019/10/20 04:18 EDT    0.90   1.31    5  318    8  49.1  53.4 1017.9 32.3  1.025 -99.9 -99.99 -9.99
2019/10/20 04:24 EDT    0.83   1.28    4  327    7  48.6  53.2 1017.8 32.4  1.026 -99.9 -99.99 -9.99
2019/10/20 04:30 EDT    0.77   1.18    4  330    6  48.2  53.2 1017.7 32.4  1.026 -99.9 -99.99 -9.99
2019/10/20 04:36 EDT    0.72   1.13    4    6    5  48.4  53.2 1017.7 32.4  1.026 -99.9 -99.99 -9.99
2019/10/20 04:42 EDT    0.67   1.09    4  352    5  48.4  53.2 1017.6 32.4  1.025 -99.9 -99.99 -9.99
2019/10/20 04:48 EDT    0.62   1.03    5  357    6  48.7  53.2 1017.6 32.4  1.025 -99.9 -99.99 -9.99
2019/10/20 04:54 EDT    0.58   1.02    4    1    7  48.4  53.2 1017.6 32.3  1.025 -99.9 -99.99 -9.99
2019/10/20 05:00 EDT    0.55   1.03    5    0    7  47.8  53.2 1017.6 32.3  1.025 -99.9 -99.99 -9.99
2019/10/20 05:06 EDT    0.52   1.02    6   10    7  48.0  53.2 1017.5 32.3  1.025 -99.9 -99.99 -9.99
2019/10/20 05:12 EDT    0.49   1.00    5    6    8  48.2  53.2 1017.4 32.3  1.025 -99.9 -99.99 -9.99
2019/10/20 05:18 EDT    0.47   1.03    4    5    7  48.2  53.2 1017.6 32.4  1.025 -99.9 -99.99 -9.99
2019/10/20 05:24 EDT    0.45   0.92    5   11    7  48.2  53.2 1017.5 32.3  1.025 -99.9 -99.99 -9.99
2019/10/20 05:30 EDT    0.44   1.00    5    7    7  48.4  53.2 1017.5 32.3  1.025 -99.9 -99.99 -9.99
2019/10/20 05:36 EDT    0.43   1.01    4    4    7  48.2  53.2 1017.6 32.3  1.025 -99.9 -99.99 -9.99
2019/10/20 05:42 EDT    0.43   0.96    3  357    6  48.6  53.2 1017.8 32.3  1.025 -99.9 -99.99 -9.99
2019/10/20 05:48 EDT    0.43   1.03    4    9    6  48.7  53.1 1017.8 32.4  1.026 -99.9 -99.99 -9.99
2019/10/20 05:54 EDT    0.44   1.05    4  355    6  48.7  53.1 1017.9 32.5  1.026 -99.9 -99.99 -9.99
2019/10/20 06:00 EDT    0.45   1.02    4  355    6  48.7  53.2 1018.0 32.4  1.026 -99.9 -99.99 -9.99
2019/10/20 06:06 EDT    0.47   1.10    4  352    5  48.9  53.2 1018.1 32.4  1.026 -99.9 -99.99 -9.99
2019/10/20 06:12 EDT    0.49   1.08    3  357    6  49.1  53.2 1018.2 32.4  1.025 -99.9 -99.99 -9.99
2019/10/20 06:18 EDT    0.51   1.12    5  359    6  49.1  53.2 1018.3 32.4  1.025 -99.9 -99.99 -9.99
2019/10/20 06:24 EDT    0.54   1.14    5   10    7  48.9  53.2 1018.2 32.4  1.026 -99.9 -99.99 -9.99
2019/10/20 06:30 EDT    0.56   1.20    6   11    7  48.9  53.2 1018.1 32.5  1.026 -99.9 -99.99 -9.99
2019/10/20 06:36 EDT    0.59   1.31    6   13    8  48.7  53.2 1018.0 32.5  1.026 -99.9 -99.99 -9.99
2019/10/20 06:42 EDT    0.63   1.32    4   14    7  49.1  53.4 1018.0 32.4  1.026 -99.9 -99.99 -9.99
2019/10/20 06:48 EDT    0.66   1.32    4   21    5  48.6  53.4 1018.0 32.5  1.026 -99.9 -99.99 -9.99
2019/10/20 06:54 EDT    0.70   1.34    4   29    5  47.8  53.6 1018.0 32.5  1.026 -99.9 -99.99 -9.99
2019/10/20 07:00 EDT    0.74   1.41    4   36    6  47.3  53.6 1017.9 32.5  1.026 -99.9 -99.99 -9.99
2019/10/20 07:06 EDT    0.78   1.42    4   34    6  47.5  53.8 1017.8 32.5  1.026 -99.9 -99.99 -9.99
2019/10/20 07:12 EDT    0.82   1.45    4   33    5  47.3  53.8 1017.9 32.5  1.026 -99.9 -99.99 -9.99
2019/10/20 07:18 EDT    0.86   1.46    2   42    5  47.1  53.8 1018.0 32.5  1.026 -99.9 -99.99 -9.99
2019/10/20 07:24 EDT    0.91   1.47    3   45    4  47.1  53.8 1018.0 32.5  1.026 -99.9 -99.99 -9.99
2019/10/20 07:30 EDT    0.95   1.59    3   50    4  46.9  53.8 1017.9 32.5  1.026 -99.9 -99.99 -9.99
2019/10/20 07:36 EDT    0.99   1.56    3   51    4  46.8  54.0 1018.0 32.5  1.026 -99.9 -99.99 -9.99
2019/10/20 07:42 EDT    1.04   1.67    4   24    6  46.9  54.0 1018.0 32.5  1.026 -99.9 -99.99 -9.99
2019/10/20 07:48 EDT    1.08   1.68    3   28    4  47.3  54.1 1018.1 32.6  1.026 -99.9 -99.99 -9.99
2019/10/20 07:54 EDT    1.12   1.64    3   45    4  47.1  54.1 1018.0 32.5  1.026 -99.9 -99.99 -9.99
2019/10/20 08:00 EDT    1.17   1.79    3   28    4  47.3  54.1 1018.0 32.5  1.026 -99.9 -99.99 -9.99
2019/10/20 08:06 EDT    1.21   1.78    3   28    4  47.5  54.1 1018.0 32.5  1.026 -99.9 -99.99 -9.99
2019/10/20 08:12 EDT    1.25   1.93    2    9    3  47.7  54.1 1018.2 32.5  1.026 -99.9 -99.99 -9.99
2019/10/20 08:18 EDT    1.30   1.96    2   27    3  47.8  54.1 1018.2 32.5  1.026 -99.9 -99.99 -9.99
2019/10/20 08:24 EDT    1.34   1.98    1   27    2  47.8  54.1 1018.3 32.5  1.026 -99.9 -99.99 -9.99
2019/10/20 08:30 EDT    1.39   2.08    2   16    3  48.2  54.1 1018.3 32.5  1.026 -99.9 -99.99 -9.99
2019/10/20 08:36 EDT    1.43   2.14    2   15    3  48.6  54.1 1018.5 32.5  1.026 -99.9 -99.99 -9.99
2019/10/20 08:42 EDT    1.48   2.20    3  356    3  48.2  54.1 1018.6 32.5  1.025 -99.9 -99.99 -9.99
2019/10/20 08:48 EDT    1.52   2.17    3    9    4  48.6  54.0 1018.6 32.5  1.026 -99.9 -99.99 -9.99
2019/10/20 08:54 EDT    1.57   2.26    2   17    3  49.5  54.0 1018.7 32.5  1.025 -99.9 -99.99 -9.99
2019/10/20 09:00 EDT    1.61   2.23    2    8    4  49.8  54.0 1018.7 32.4  1.025 -99.9 -99.99 -9.99
2019/10/20 09:06 EDT    1.66   2.23    3  356    4  49.8  54.0 1018.8 32.4  1.025 -99.9 -99.99 -9.99
2019/10/20 09:12 EDT    1.71   2.41    4  350    4  49.8  54.0 1018.7 32.4  1.025 -99.9 -99.99 -9.99
2019/10/20 09:18 EDT    1.76   2.29    4    5    5  49.8  54.0 1018.6 32.4  1.025 -99.9 -99.99 -9.99
2019/10/20 09:24 EDT    1.81   2.43    3    7    5  50.2  54.0 1018.8 32.4  1.025 -99.9 -99.99 -9.99
2019/10/20 09:30 EDT    1.86   2.52    4  355    5  50.0  54.0 1019.0 32.4  1.025 -99.9 -99.99 -9.99
2019/10/20 09:36 EDT    1.92   2.48    4  353    6  49.8  54.0 1019.1 32.4  1.025 -99.9 -99.99 -9.99
2019/10/20 09:42 EDT    1.97   2.67    3    6    5  50.0  53.8 1019.2 32.5  1.026 -99.9 -99.99 -9.99
2019/10/20 09:48 EDT    2.03   2.70    3  345    5  50.4  54.0 1019.3 32.5  1.025 -99.9 -99.99 -9.99
2019/10/20 09:54 EDT    2.08   2.70    4  344    5  50.4  54.1 1019.3 32.5  1.025 -99.9 -99.99 -9.99
2019/10/20 10:00 EDT    2.14   2.76    4  351    6  50.5  54.1 1019.4 32.5  1.026 -99.9 -99.99 -9.99
2019/10/20 10:06 EDT    2.20   2.80    4  346    5  50.5  54.1 1019.4 32.6  1.026 -99.9 -99.99 -9.99
2019/10/20 10:12 EDT    2.26   2.89    4    6    5  50.4  54.3 1019.5 32.5  1.025 -99.9 -99.99 -9.99
2019/10/20 10:18 EDT    2.32   2.90    4    5    5  50.5  54.3 1019.3 32.5  1.025 -99.9 -99.99 -9.99
2019/10/20 10:24 EDT    2.38   3.02    4  355    7  50.7  54.3 1019.4 32.5  1.026 -99.9 -99.99 -9.99
2019/10/20 10:30 EDT    2.44   3.04    4  356    6  50.7  54.1 1019.3 32.6  1.026 -99.9 -99.99 -9.99
2019/10/20 10:36 EDT    2.50   3.06    5    6    6  51.3  54.1 1019.3 32.6  1.026 -99.9 -99.99 -9.99
2019/10/20 10:42 EDT    2.57   3.20    4   20    6  51.3  54.3 1019.3 32.6  1.026 -99.9 -99.99 -9.99
2019/10/20 10:48 EDT    2.63   3.17    4   18    5  51.6  54.1 1019.3 32.6  1.026 -99.9 -99.99 -9.99
2019/10/20 10:54 EDT    2.69   3.32    4    8    5  52.0  54.1 1019.3 32.5  1.026 -99.9 -99.99 -9.99
2019/10/20 11:00 EDT    2.76   3.44    3   18    5  52.2  54.3 1019.3 32.5  1.026 -99.9 -99.99 -9.99
2019/10/20 11:06 EDT    2.82   3.35    4  339    4  52.7  54.3 1019.3 32.6  1.026 -99.9 -99.99 -9.99
2019/10/20 11:12 EDT    2.88   3.44    2    5    4  53.2  54.5 1019.2 32.5  1.026 -99.9 -99.99 -9.99
2019/10/20 11:18 EDT    2.94   3.55    3  356    4  53.1  54.3 1019.1 32.6  1.026 -99.9 -99.99 -9.99
2019/10/20 11:24 EDT    3.00   3.54    3    5    4  53.8  54.7 1019.0 32.6  1.026 -99.9 -99.99 -9.99
2019/10/20 11:30 EDT    3.06   3.58    3    7    4  54.3  54.7 1018.9 32.6  1.026 -99.9 -99.99 -9.99
2019/10/20 11:36 EDT    3.12   3.67    2    2    4  55.4  54.7 1018.9 32.6  1.026 -99.9 -99.99 -9.99
2019/10/20 11:42 EDT    3.17   3.65    1  319    3  56.8  54.7 1018.9 32.6  1.026 -99.9 -99.99 -9.99
2019/10/20 11:48 EDT    3.23   3.70    3  311    4  56.3  54.5 1018.9 32.5  1.026 -99.9 -99.99 -9.99
2019/10/20 11:54 EDT    3.28   3.79    3  302    4  56.1  54.7 1019.0 32.6  1.026 -99.9 -99.99 -9.99
2019/10/20 12:00 EDT    3.32   3.76    2  278    3  57.0  54.7 1018.8 32.7  1.026 -99.9 -99.99 -9.99
2019/10/20 12:06 EDT    3.37   3.77    2  244    3  57.2  54.7 1018.5 32.7  1.026 -99.9 -99.99 -9.99
2019/10/20 12:12 EDT    3.41   3.88    1  234    2  58.1  54.7 1018.5 32.7  1.026 -99.9 -99.99 -9.99
2019/10/20 12:18 EDT    3.45   3.82    3  245    5  58.5  54.9 1018.5 32.6  1.026 -99.9 -99.99 -9.99
2019/10/20 12:24 EDT    3.48   3.89    4  243    5  58.5  54.7 1018.5 32.8  1.026 -99.9 -99.99 -9.99
2019/10/20 12:30 EDT    3.51   4.04    4  175    6  58.6  54.9 1018.5 32.7  1.026 -99.9 -99.99 -9.99
2019/10/20 12:36 EDT    3.53   3.93    5  174    8  59.0  54.7 1018.3 32.7  1.026 -99.9 -99.99 -9.99
2019/10/20 12:42 EDT    3.56   4.01    6  165    7  59.4  54.5 1018.3 32.7  1.026 -99.9 -99.99 -9.99
2019/10/20 12:48 EDT    3.57   4.08    6  154    8  59.2  54.7 1018.3 32.7  1.026 -99.9 -99.99 -9.99
2019/10/20 12:54 EDT    3.58   4.04    7  180    8  59.2  54.5 1018.3 32.7  1.026 -99.9 -99.99 -9.99
2019/10/20 13:00 EDT    3.59   4.04    6  167    8  58.8  54.5 1018.4 32.7  1.026 -99.9 -99.99 -9.99
2019/10/20 13:06 EDT    3.59   4.09    5  190    8  59.4  54.5 1018.3 32.6  1.026 -99.9 -99.99 -9.99
2019/10/20 13:12 EDT    3.58   3.96    6  180    7  59.2  54.3 1018.3 32.6  1.026 -99.9 -99.99 -9.99
2019/10/20 13:18 EDT    3.57   3.94    4  176    7  59.5  54.1 1018.2 32.6  1.026 -99.9 -99.99 -9.99
2019/10/20 13:24 EDT    3.56   4.05    4  182    7  59.5  54.1 1018.2 32.6  1.026 -99.9 -99.99 -9.99
2019/10/20 13:30 EDT    3.54   3.96    5  199    7  59.4  54.1 1018.2 32.7  1.026 -99.9 -99.99 -9.99
2019/10/20 13:36 EDT    3.51   3.90    6  213    8  59.2  54.1 1018.3 32.7  1.026 -99.9 -99.99 -9.99
2019/10/20 13:42 EDT    3.48   4.03    5  203    8  59.4  54.1 1018.2 32.6  1.026 -99.9 -99.99 -9.99
2019/10/20 13:48 EDT    3.45   3.93    4  211    7  59.7  54.1 1018.2 32.7  1.026 -99.9 -99.99 -9.99
2019/10/20 13:54 EDT    3.41   3.84    5  191    7  60.1  54.3 1018.3 32.6  1.026 -99.9 -99.99 -9.99
2019/10/20 14:00 EDT    3.36   3.90    6  202    8  59.4  54.7 1018.3 32.6  1.026 -99.9 -99.99 -9.99
2019/10/20 14:06 EDT    3.31   3.79    6  175    7  59.4  54.5 1018.4 32.6  1.026 -99.9 -99.99 -9.99
2019/10/20 14:12 EDT    3.26   3.69    6  163    7  59.2  54.5 1018.3 32.6  1.026 -99.9 -99.99 -9.99
2019/10/20 14:18 EDT    3.20   3.69    5  182    9  59.2  54.5 1018.3 32.6  1.026 -99.9 -99.99 -9.99
2019/10/20 14:24 EDT    3.14   3.50    4  186    7  59.7  54.5 1018.3 32.6  1.026 -99.9 -99.99 -9.99
2019/10/20 14:30 EDT    3.07   3.55    5  196    7  59.4  54.5 1018.2 32.5  1.025 -99.9 -99.99 -9.99
2019/10/20 14:36 EDT    3.01   3.46    3  207    6  59.4  54.5 1018.1 32.5  1.025 -99.9 -99.99 -9.99
2019/10/20 14:42 EDT    2.93   3.27    3  185    4  59.5  54.5 1018.1 32.6  1.026 -99.9 -99.99 -9.99
2019/10/20 14:48 EDT    2.86   3.32    2  181    5  59.9  54.5 1018.0 32.6  1.026 -99.9 -99.99 -9.99
2019/10/20 14:54 EDT    2.78   3.25    2  198    3  60.1  54.5 1017.9 32.6  1.026 -99.9 -99.99 -9.99
2019/10/20 15:00 EDT    2.70   3.12    3  192    4  59.7  54.5 1017.9 32.5  1.026 -99.9 -99.99 -9.99
2019/10/20 15:06 EDT    2.62   3.07    3  181    4  59.7  54.3 1017.8 32.6  1.026 -99.9 -99.99 -9.99
2019/10/20 15:12 EDT    2.54   3.03    2  146    4  59.7  54.3 1017.9 32.6  1.026 -99.9 -99.99 -9.99
2019/10/20 15:18 EDT    2.46   2.87    3  128    5  58.8  54.5 1017.9 32.5  1.025 -99.9 -99.99 -9.99
2019/10/20 15:24 EDT    2.38   2.81    2  123    5  59.0  54.5 1017.8 32.5  1.025 -99.9 -99.99 -9.99
2019/10/20 15:30 EDT    2.29   2.82    3  124    4  59.0  54.3 1017.8 32.6  1.026 -99.9 -99.99 -9.99
2019/10/20 15:36 EDT    2.21   2.69    3  122    5  58.6  54.3 1017.8 32.6  1.026 -99.9 -99.99 -9.99
2019/10/20 15:42 EDT    2.12   2.58    4  146    5  58.8  54.3 1017.9 32.5  1.026 -99.9 -99.99 -9.99
2019/10/20 15:48 EDT    2.04   2.61    4  172    4  59.0  54.3 1017.9 32.6  1.026 -99.9 -99.99 -9.99
2019/10/20 15:54 EDT    1.96   2.40    2  187    4  59.0  54.3 1017.9 32.5  1.026 -99.9 -99.99 -9.99
2019/10/20 16:00 EDT    1.87   2.38    3  143    4  58.8  54.3 1017.9 32.5  1.025 -99.9 -99.99 -9.99
2019/10/20 16:06 EDT    1.79   2.36    4  151    5  58.6  54.3 1017.9 32.5  1.025 -99.9 -99.99 -9.99
2019/10/20 16:12 EDT    1.71   2.17    3  124    4  58.5  54.3 1017.9 32.5  1.025 -99.9 -99.99 -9.99
2019/10/20 16:18 EDT    1.64   2.11    3  144    4  58.5  54.1 1017.9 32.5  1.026 -99.9 -99.99 -9.99
2019/10/20 16:24 EDT    1.56   2.04    3  130    4  58.5  54.1 1017.9 32.5  1.025 -99.9 -99.99 -9.99
2019/10/20 16:30 EDT    1.49   1.97    3  105    4  58.1  54.1 1017.8 32.5  1.026 -99.9 -99.99 -9.99
2019/10/20 16:36 EDT    1.42   1.84    3  125    4  58.1  54.1 1017.7 32.5  1.026 -99.9 -99.99 -9.99
2019/10/20 16:42 EDT    1.35   1.80    4  102    4  58.1  54.1 1017.6 32.5  1.025 -99.9 -99.99 -9.99
2019/10/20 16:48 EDT    1.28   1.72    4   99    4  58.1  54.1 1017.5 32.5  1.025 -99.9 -99.99 -9.99
2019/10/20 16:54 EDT    1.22   1.60    4   96    6  57.9  54.1 1017.4 32.4  1.025 -99.9 -99.99 -9.99
2019/10/20 17:00 EDT    1.16   1.68    4   87    6  57.9  54.1 1017.3 32.4  1.025 -99.9 -99.99 -9.99
2019/10/20 17:06 EDT    1.10   1.56    4   91    6  57.9  54.1 1017.3 32.4  1.025 -99.9 -99.99 -9.99
2019/10/20 17:12 EDT    1.05   1.50    4  105    5  57.7  54.1 1017.3 32.4  1.025 -99.9 -99.99 -9.99
2019/10/20 17:18 EDT    1.00   1.55    4  116    6  57.7  54.1 1017.3 32.4  1.025 -99.9 -99.99 -9.99
2019/10/20 17:24 EDT    0.96   1.39    5  101    7  57.7  54.3 1017.2 32.4  1.025 -99.9 -99.99 -9.99
2019/10/20 17:30 EDT    0.92   1.47    5   94    7  57.6  54.3 1017.2 32.4  1.025 -99.9 -99.99 -9.99
2019/10/20 17:36 EDT    0.88   1.40    4   99    6  57.6  54.3 1017.2 32.4  1.025 -99.9 -99.99 -9.99
2019/10/20 17:42 EDT    0.85   1.36    4  103    5  57.4  54.3 1017.2 32.4  1.025 -99.9 -99.99 -9.99
2019/10/20 17:48 EDT    0.82   1.42    4   96    4  57.2  54.3 1017.1 32.5  1.025 -99.9 -99.99 -9.99
2019/10/20 17:54 EDT    0.79   1.41    4  108    6  57.2  54.3 1017.1 32.4  1.025 -99.9 -99.99 -9.99
2019/10/20 18:00 EDT    0.77   1.38    5   94    6  57.2  54.3 1017.1 32.4  1.025 -99.9 -99.99 -9.99
2019/10/20 18:06 EDT    0.75   1.38    4   97    6  57.0  54.3 1017.1 32.5  1.025 -99.9 -99.99 -9.99
2019/10/20 18:12 EDT    0.73   1.37    3  116    5  57.2  54.3 1017.1 32.4  1.025 -99.9 -99.99 -9.99
2019/10/20 18:18 EDT    0.72   1.39    5  105    6  57.2  54.3 1017.0 32.4  1.025 -99.9 -99.99 -9.99
2019/10/20 18:24 EDT    0.71   1.33    4   84    6  57.0  54.3 1017.0 32.6  1.026 -99.9 -99.99 -9.99
2019/10/20 18:30 EDT    0.71   1.36    3   75    5  57.0  54.3 1016.8 32.6  1.026 -99.9 -99.99 -9.99
2019/10/20 18:36 EDT    0.70   1.37    4  103    5  56.8  54.3 1017.0 32.6  1.026 -99.9 -99.99 -9.99
2019/10/20 18:42 EDT    0.70   1.39    4  118    5  56.8  54.3 1017.1 32.6  1.026 -99.9 -99.99 -9.99
2019/10/20 18:48 EDT    0.70   1.32    4  136    5  56.8  54.3 1017.2 32.6  1.026 -99.9 -99.99 -9.99
2019/10/20 18:54 EDT    0.71   1.38    3  128    5  56.8  54.3 1017.1 32.6  1.026 -99.9 -99.99 -9.99
2019/10/20 19:00 EDT    0.71   1.35    4  116    7  57.0  54.3 1017.1 32.6  1.026 -99.9 -99.99 -9.99
2019/10/20 19:06 EDT    0.72   1.29    4  106    6  57.2  54.3 1017.1 32.6  1.026 -99.9 -99.99 -9.99
2019/10/20 19:12 EDT    0.72   1.41    4  101    6  57.0  54.3 1017.1 32.6  1.026 -99.9 -99.99 -9.99
2019/10/20 19:18 EDT    0.73   1.34    4  107    7  57.0  54.3 1017.1 32.6  1.026 -99.9 -99.99 -9.99
2019/10/20 19:24 EDT    0.74   1.40    6  105    7  57.2  54.3 1017.1 32.6  1.026 -99.9 -99.99 -9.99
2019/10/20 19:30 EDT    0.75   1.41    5  107    7  57.0  54.3 1017.0 32.5  1.025 -99.9 -99.99 -9.99
2019/10/20 19:36 EDT    0.76   1.33    4   98    6  57.0  54.3 1017.1 32.5  1.026 -99.9 -99.99 -9.99
2019/10/20 19:42 EDT    0.78   1.38    3   99    5  57.0  54.3 1017.0 32.5  1.026 -99.9 -99.99 -9.99
2019/10/20 19:48 EDT    0.79   1.35    3   93    4  57.0  54.3 1017.1 32.5  1.026 -99.9 -99.99 -9.99
2019/10/20 19:54 EDT    0.80   1.36    3   93    3  57.0  54.3 1017.1 32.5  1.026 -99.9 -99.99 -9.99
2019/10/20 20:00 EDT    0.81   1.39    3   66    4  57.0  54.3 1017.0 32.5  1.025 -99.9 -99.99 -9.99
2019/10/20 20:06 EDT    0.83   1.36    4   60    5  56.8  54.3 1017.0 32.5  1.025 -99.9 -99.99 -9.99
2019/10/20 20:12 EDT    0.84   1.41    4   67    5  56.8  54.3 1016.9 32.5  1.025 -99.9 -99.99 -9.99
2019/10/20 20:18 EDT    0.85   1.39    5   71    6  56.7  54.3 1017.0 32.5  1.025 -99.9 -99.99 -9.99
2019/10/20 20:24 EDT    0.87   1.41    3   56    5  56.5  54.3 1017.0 32.5  1.025 -99.9 -99.99 -9.99
2019/10/20 20:30 EDT    0.88   1.38    3   46    4  56.5  54.3 1017.0 32.5  1.025 -99.9 -99.99 -9.99
2019/10/20 20:36 EDT    0.89   1.36    2   44    4  56.3  54.3 1017.0 32.4  1.025 -99.9 -99.99 -9.99
2019/10/20 20:42 EDT    0.91   1.37    3   36    3  56.1  54.3 1017.0 32.4  1.025 -99.9 -99.99 -9.99
2019/10/20 20:48 EDT    0.93   1.42    3   36    4  56.1  54.3 1017.0 32.5  1.025 -99.9 -99.99 -9.99
2019/10/20 20:54 EDT    0.94   1.44    3   31    4  55.8  54.3 1017.0 32.4  1.025 -99.9 -99.99 -9.99
2019/10/20 21:00 EDT    0.96   1.44    3   34    4  55.8  54.3 1016.9 32.4  1.025 -99.9 -99.99 -9.99
2019/10/20 21:06 EDT    0.98   1.50    4   27    4  55.4  54.3 1016.8 32.3  1.025 -99.9 -99.99 -9.99
2019/10/20 21:12 EDT    1.00   1.51    4   29    5  55.4  54.3 1016.8 32.3  1.025 -99.9 -99.99 -9.99
2019/10/20 21:18 EDT    1.02   1.50    4   30    5  55.2  54.3 1016.8 32.4  1.025 -99.9 -99.99 -9.99
2019/10/20 21:24 EDT    1.05   1.65    4   32    6  55.2  54.3 1016.7 32.4  1.025 -99.9 -99.99 -9.99
2019/10/20 21:30 EDT    1.07   1.57    4   38    5  55.0  54.3 1016.7 32.4  1.025 -99.9 -99.99 -9.99
2019/10/20 21:36 EDT    1.10   1.59    4   37    6  55.0  54.3 1016.7 32.4  1.025 -99.9 -99.99 -9.99
2019/10/20 21:42 EDT    1.13   1.75    4   42    6  55.0  54.3 1016.7 32.4  1.025 -99.9 -99.99 -9.99
2019/10/20 21:48 EDT    1.17   1.68    4   41    6  55.0  54.3 1016.7 32.4  1.025 -99.9 -99.99 -9.99
2019/10/20 21:54 EDT    1.20   1.79    4   34    6  55.0  54.3 1016.8 32.4  1.025 -99.9 -99.99 -9.99
2019/10/20 22:00 EDT    1.24   1.83    3   33    5  55.0  54.3 1016.8 32.3  1.025 -99.9 -99.99 -9.99
2019/10/20 22:06 EDT    1.28   1.91    4   32    7  55.0  54.3 1016.7 32.4  1.025 -99.9 -99.99 -9.99
2019/10/20 22:12 EDT    1.32   1.96    4   41    6  54.9  54.3 1016.7 32.4  1.025 -99.9 -99.99 -9.99
2019/10/20 22:18 EDT    1.37   1.99    6   66    7  55.0  54.3 1016.7 32.4  1.025 -99.9 -99.99 -9.99
2019/10/20 22:24 EDT    1.42   2.03    7   67    8  55.0  54.3 1016.6 32.4  1.025 -99.9 -99.99 -9.99
2019/10/20 22:30 EDT    1.47   2.07    5   77    8  55.0  54.3 1016.7 32.4  1.025 -99.9 -99.99 -9.99
2019/10/20 22:36 EDT    1.52   2.19    5   62    7  54.9  54.3 1016.7 32.3  1.025 -99.9 -99.99 -9.99
2019/10/20 22:42 EDT    1.58   2.23    4   50    6  54.9  54.3 1016.7 32.3  1.025 -99.9 -99.99 -9.99
2019/10/20 22:48 EDT    1.63   2.31    5   35    7  54.9  54.3 1016.7 32.3  1.025 -99.9 -99.99 -9.99
2019/10/20 22:54 EDT    1.69   2.40    4   40    6  54.7  54.3 1016.7 32.3  1.025 -99.9 -99.99 -9.99
2019/10/20 23:00 EDT    1.76   2.44    5   31    7  54.5  54.3 1016.7 32.3  1.025 -99.9 -99.99 -9.99
2019/10/20 23:06 EDT    1.82   2.56    6   32    8  54.5  54.3 1016.7 32.4  1.025 -99.9 -99.99 -9.99
2019/10/20 23:12 EDT    1.89   2.59    6   33    6  54.5  54.3 1016.8 32.3  1.025 -99.9 -99.99 -9.99
2019/10/20 23:18 EDT    1.95   2.68    5   39    7  54.5  54.3 1016.8 32.3  1.025 -99.9 -99.99 -9.99
2019/10/20 23:24 EDT    2.02   2.80    6   33    8  54.5  54.3 1016.7 32.4  1.025 -99.9 -99.99 -9.99
2019/10/20 23:30 EDT    2.09   2.89    6   37    8  54.3  54.3 1016.8 32.4  1.025 -99.9 -99.99 -9.99
2019/10/20 23:36 EDT    2.16   3.01    6   33    8  54.3  54.3 1016.7 32.4  1.025 -99.9 -99.99 -9.99
2019/10/20 23:42 EDT    2.23   3.11    5   32    7  54.3  54.3 1016.8 32.4  1.025 -99.9 -99.99 -9.99
2019/10/20 23:48 EDT    2.30   3.22    5   36    7  54.1  54.3 1016.8 32.4  1.025 -99.9 -99.99 -9.99
2019/10/20 23:54 EDT    2.37   3.21    4   35    6  54.1  54.3 1016.8 32.4  1.025 -99.9 -99.99 -9.99
2019/10/21 00:00 EDT    2.44   3.33    4   42    6  54.0  54.3 1016.7 32.4  1.025 -99.9 -99.99 -9.99
2019/10/21 00:06 EDT    2.50   3.39    4   50    7  54.0  54.3 1016.7 32.4  1.025 -99.9 -99.99 -9.99
2019/10/21 00:12 EDT    2.57   3.45    6   40    9  53.8  54.3 1016.6 32.4  1.025 -99.9 -99.99 -9.99
2019/10/21 00:18 EDT    2.63   3.51    5   42    8  53.8  54.3 1016.6 32.3  1.025 -99.9 -99.99 -9.99
2019/10/21 00:24 EDT    2.69   3.58    5   43    7  53.8  54.3 1016.6 32.3  1.025 -99.9 -99.99 -9.99
2019/10/21 00:30 EDT    2.75   3.64    4   41    7  53.8  54.3 1016.5 32.3  1.025 -99.9 -99.99 -9.99
2019/10/21 00:36 EDT    2.81   3.68    4   31    6  53.6  54.3 1016.5 32.3  1.025 -99.9 -99.99 -9.99
2019/10/21 00:42 EDT    2.86   3.69    6   31    8  53.6  54.3 1016.5 32.3  1.025 -99.9 -99.99 -9.99
2019/10/21 00:48 EDT    2.91   3.76    4   25    7  53.8  54.5 1016.5 32.3  1.025 -99.9 -99.99 -9.99
2019/10/21 00:54 EDT    2.96   3.80    5   22    7  53.8  54.5 1016.5 32.4  1.025 -99.9 -99.99 -9.99
2019/10/21 01:00 EDT    3.00   3.84    7   29    7  53.6  54.5 1016.4 32.4  1.025 -99.9 -99.99 -9.99
2019/10/21 01:06 EDT    3.03   3.87    7   35    8  53.2  54.5 1016.2 32.4  1.025 -99.9 -99.99 -9.99
2019/10/21 01:12 EDT    3.06   3.87    6   33    8  53.2  54.3 1016.1 32.4  1.025 -99.9 -99.99 -9.99
2019/10/21 01:18 EDT    3.09   3.90    7   37    8  53.2  54.3 1015.9 32.4  1.025 -99.9 -99.99 -9.99
2019/10/21 01:24 EDT    3.11   3.87    7   40    9  53.2  54.3 1015.9 32.4  1.025 -99.9 -99.99 -9.99
2019/10/21 01:30 EDT    3.13   3.81    6   39   11  53.2  54.1 1015.7 32.4  1.025 -99.9 -99.99 -9.99
2019/10/21 01:36 EDT    3.14   3.82    6   44   10  53.2  54.3 1015.7 32.3  1.025 -99.9 -99.99 -9.99
2019/10/21 01:42 EDT    3.14   3.82    7   31   11  53.4  54.1 1015.8 32.3  1.025 -99.9 -99.99 -9.99
2019/10/21 01:48 EDT    3.14   3.81    7   31    9  53.6  54.3 1015.8 32.4  1.025 -99.9 -99.99 -9.99
2019/10/21 01:54 EDT    3.13   3.76    6   32    8  53.4  54.3 1015.8 32.3  1.025 -99.9 -99.99 -9.99
2019/10/21 02:00 EDT    3.12   3.78    7   31    9  53.4  54.3 1015.8 32.3  1.025 -99.9 -99.99 -9.99
2019/10/21 02:06 EDT    3.10   3.74    6   29    9  53.4  54.3 1015.8 32.3  1.025 -99.9 -99.99 -9.99
2019/10/21 02:12 EDT    3.08   3.64    7   33    8  53.2  54.3 1015.7 32.3  1.025 -99.9 -99.99 -9.99
2019/10/21 02:18 EDT    3.05   3.59    6   24    8  53.4  54.3 1015.7 32.3  1.025 -99.9 -99.99 -9.99
2019/10/21 02:24 EDT    3.01   3.54    6   22   10  53.6  54.3 1015.7 32.4  1.025 -99.9 -99.99 -9.99
2019/10/21 02:30 EDT    2.97   3.47    7   31    9  53.6  54.3 1015.7 32.4  1.025 -99.9 -99.99 -9.99
2019/10/21 02:36 EDT    2.93   3.43    9   28   12  53.6  54.3 1015.7 32.4  1.025 -99.9 -99.99 -9.99
2019/10/21 02:42 EDT    2.88   3.44    9   30   11  53.6  54.3 1015.7 32.4  1.025 -99.9 -99.99 -9.99
2019/10/21 02:48 EDT    2.82   3.34    8   25   11  53.8  54.3 1015.5 32.4  1.025 -99.9 -99.99 -9.99
2019/10/21 02:54 EDT    2.76   3.25    7   22   11  53.8  54.3 1015.5 32.4  1.025 -99.9 -99.99 -9.99
2019/10/21 03:00 EDT    2.70   3.19    9   31   11  53.6  54.3 1015.5 32.4  1.025 -99.9 -99.99 -9.99
2019/10/21 03:06 EDT    2.64   3.12    9   30   11  53.6  54.3 1015.4 32.4  1.025 -99.9 -99.99 -9.99
2019/10/21 03:12 EDT    2.57   2.97    9   32   12  53.4  54.3 1015.4 32.4  1.025 -99.9 -99.99 -9.99
2019/10/21 03:18 EDT    2.49   2.93   10   30   12  53.4  54.3 1015.5 32.4  1.025 -99.9 -99.99 -9.99
2019/10/21 03:24 EDT    2.42   2.89    8   40   12  53.4  54.3 1015.3 32.4  1.025 -99.9 -99.99 -9.99
2019/10/21 03:30 EDT    2.34   2.74   10   32   12  53.6  54.3 1015.4 32.5  1.025 -99.9 -99.99 -9.99
2019/10/21 03:36 EDT    2.26   2.75    9   29   13  53.6  54.3 1015.4 32.5  1.025 -99.9 -99.99 -9.99
2019/10/21 03:42 EDT    2.18   2.59    9   36   11  53.6  54.3 1015.4 32.3  1.025 -99.9 -99.99 -9.99
2019/10/21 03:48 EDT    2.10   2.52    9   34   13  53.6  54.3 1015.2 32.4  1.025 -99.9 -99.99 -9.99
2019/10/21 03:54 EDT    2.02   2.46   10   34   12  53.4  54.3 1015.2 32.4  1.025 -99.9 -99.99 -9.99
2019/10/21 04:00 EDT    1.94   2.34    9   30   13  53.6  54.3 1015.2 32.3  1.025 -99.9 -99.99 -9.99
2019/10/21 04:06 EDT    1.85   2.31    9   31   12  53.6  54.3 1015.1 32.3  1.025 -99.9 -99.99 -9.99
2019/10/21 04:12 EDT    1.77   2.23    9   22   13  53.6  54.3 1015.1 32.3  1.025 -99.9 -99.99 -9.99
2019/10/21 04:18 EDT    1.69   2.21    9   20   13  53.8  54.3 1015.3 32.3  1.025 -99.9 -99.99 -9.99
2019/10/21 04:24 EDT    1.61   2.10    8   20   13  53.8  54.3 1015.3 32.3  1.025 -99.9 -99.99 -9.99
2019/10/21 04:30 EDT    1.53   2.03    8   20   13  54.0  54.3 1015.2 32.3  1.025 -99.9 -99.99 -9.99
2019/10/21 04:36 EDT    1.45   1.97   12   25   14  53.6  54.3 1015.2 32.3  1.025 -99.9 -99.99 -9.99
2019/10/21 04:42 EDT    1.37   1.87   10   30   13  53.6  54.3 1015.2 32.3  1.025 -99.9 -99.99 -9.99
2019/10/21 04:48 EDT    1.30   1.85    7   17   12  53.6  54.3 1015.5 32.3  1.025 -99.9 -99.99 -9.99
2019/10/21 04:54 EDT    1.22   1.82    7   11   10  53.6  54.3 1015.6 32.2  1.025 -99.9 -99.99 -9.99
2019/10/21 05:00 EDT    1.15   1.78   10   26   12  53.8  54.3 1015.5 32.2  1.025 -99.9 -99.99 -9.99
2019/10/21 05:06 EDT    1.09   1.77    9   24   12  53.8  54.3 1015.5 32.2  1.025 -99.9 -99.99 -9.99
2019/10/21 05:12 EDT    1.02   1.72   10   29   16  53.6  54.3 1015.4 32.2  1.025 -99.9 -99.99 -9.99
2019/10/21 05:18 EDT    0.96   1.76    9   22   15  53.6  54.3 1015.6 32.1  1.025 -99.9 -99.99 -9.99
2019/10/21 05:24 EDT    0.90   1.66    7    1   11  53.6  54.3 1016.0 32.1  1.025 -99.9 -99.99 -9.99
2019/10/21 05:30 EDT    0.85   1.69    7    9   10  53.6  54.3 1016.3 32.1  1.025 -99.9 -99.99 -9.99
2019/10/21 05:36 EDT    0.80   1.59    6   11   11  53.8  54.3 1016.3 32.0  1.025 -99.9 -99.99 -9.99
2019/10/21 05:42 EDT    0.76   1.50    6   16   10  54.0  54.3 1016.4 32.0  1.025 -99.9 -99.99 -9.99
2019/10/21 05:48 EDT    0.72   1.54    7   35   10  54.1  54.3 1016.1 32.0  1.025 -99.9 -99.99 -9.99
2019/10/21 05:54 EDT    0.68   1.51    7   35   11  54.1  54.3 1016.3 32.0  1.025 -99.9 -99.99 -9.99
2019/10/21 06:00 EDT    0.65   1.50    9   35   12  54.5  54.3 1016.2 31.9  1.025 -99.9 -99.99 -9.99
2019/10/21 06:06 EDT    0.62   1.48    8   23   13  54.7  54.3 1016.3 32.2  1.025 -99.9 -99.99 -9.99
2019/10/21 06:12 EDT    0.60   1.47    8   19   10  54.7  54.3 1016.2 32.3  1.025 -99.9 -99.99 -9.99
2019/10/21 06:18 EDT    0.58   1.46    8   18   11  54.7  54.3 1016.3 32.3  1.025 -99.9 -99.99 -9.99
2019/10/21 06:24 EDT    0.56   1.49    7   15   13  54.7  54.3 1016.3 32.3  1.025 -99.9 -99.99 -9.99
2019/10/21 06:30 EDT    0.55   1.43    8   14   13  54.5  54.3 1016.4 32.3  1.025 -99.9 -99.99 -9.99
2019/10/21 06:36 EDT    0.55   1.42    8   11   11  54.5  54.3 1016.5 32.3  1.025 -99.9 -99.99 -9.99
2019/10/21 06:42 EDT    0.54   1.44    9   12   13  54.5  54.3 1016.4 32.2  1.025 -99.9 -99.99 -9.99
2019/10/21 06:48 EDT    0.54   1.53    9   12   14  54.5  54.3 1016.5 32.3  1.025 -99.9 -99.99 -9.99
2019/10/21 06:54 EDT    0.55   1.57    9   11   13  54.5  54.3 1016.6 32.3  1.025 -99.9 -99.99 -9.99
2019/10/21 07:00 EDT    0.56   1.51    9   10   14  54.7  54.3 1016.7 32.3  1.025 -99.9 -99.99 -9.99
2019/10/21 07:06 EDT    0.57   1.58   10   14   13  54.5  54.3 1016.7 32.3  1.025 -99.9 -99.99 -9.99
2019/10/21 07:12 EDT    0.58   1.48    9   17   13  54.5  54.3 1016.8 32.3  1.025 -99.9 -99.99 -9.99
2019/10/21 07:18 EDT    0.60   1.54    8   21   12  54.7  54.3 1016.9 32.3  1.025 -99.9 -99.99 -9.99
2019/10/21 07:24 EDT    0.62   1.53    9   21   14  54.7  54.3 1017.0 32.3  1.025 -99.9 -99.99 -9.99
2019/10/21 07:30 EDT    0.64   1.53   10   23   12  54.7  54.3 1017.2 32.3  1.025 -99.9 -99.99 -9.99
2019/10/21 07:36 EDT    0.67   1.52    7   17   12  54.7  54.3 1017.2 32.4  1.025 -99.9 -99.99 -9.99
2019/10/21 07:42 EDT    0.69   1.60    9   12   11  54.7  54.3 1017.1 32.3  1.025 -99.9 -99.99 -9.99
2019/10/21 07:48 EDT    0.72   1.58    8   18   11  54.9  54.5 1017.3 32.3  1.025 -99.9 -99.99 -9.99
2019/10/21 07:54 EDT    0.75   1.55    8   13   13  54.9  54.5 1017.4 32.3  1.025 -99.9 -99.99 -9.99
2019/10/21 08:00 EDT    0.78   1.66    8   21   13  55.0  54.5 1017.5 32.3  1.025 -99.9 -99.99 -9.99
2019/10/21 08:06 EDT    0.81   1.60   10   20   13  55.0  54.5 1017.6 32.3  1.025 -99.9 -99.99 -9.99
2019/10/21 08:12 EDT    0.84   1.65   12   28   16  55.0  54.5 1017.6 32.3  1.025 -99.9 -99.99 -9.99
2019/10/21 08:18 EDT    0.87   1.66   12   30   15  55.0  54.5 1017.5 32.3  1.025 -99.9 -99.99 -9.99
2019/10/21 08:24 EDT    0.90 -99.99 -999 -999 -999 -99.9 -99.9 -999.9 -9.9 -9.999 -99.9 -99.99 -9.99
2019/10/21 08:30 EDT    0.94 -99.99 -999 -999 -999 -99.9 -99.9 -999.9 -9.9 -9.999 -99.9 -99.99 -9.99
2019/10/21 08:36 EDT    0.97 -99.99 -999 -999 -999 -99.9 -99.9 -999.9 -9.9 -9.999 -99.9 -99.99 -9.99